<?xml version="1.0" encoding="UTF-8" standalone="no" ?>
<gpx xmlns="http://www.topografix.com/GPX/1/1" xmlns:xsi="http://www.w3.org/2001/XMLSchema-instance" xsi:schemaLocation="http://www.topografix.com/GPX/1/1 http://www.topografix.com/GPX/1/1/gpx.xsd" version="1.1" creator="VisuGPX - https://www.visugpx.com">
  <metadata>
    <name>ST_RAD_10km V2</name>
    <desc><![CDATA[sortie 10 km ]]></desc>
  </metadata>
  <trk>
    <name><![CDATA[st RA 10km +v1]]></name>
    <trkseg>
      <trkpt lat="44.33568" lon="2.62924">
        <ele>648.065918</ele>
        <time>2014-09-10T15:48:09Z</time>
      </trkpt>
      <trkpt lat="44.33566" lon="2.62926">
        <ele>647.5852051</ele>
        <time>2014-09-10T15:48:11Z</time>
      </trkpt>
      <trkpt lat="44.33561" lon="2.62941">
        <ele>646.6240234</ele>
        <time>2014-09-10T15:48:16Z</time>
      </trkpt>
      <trkpt lat="44.33562" lon="2.62953">
        <ele>645.6625977</ele>
        <time>2014-09-10T15:48:19Z</time>
      </trkpt>
      <trkpt lat="44.33564" lon="2.62974">
        <ele>642.2980957</ele>
        <time>2014-09-10T15:48:25Z</time>
      </trkpt>
      <trkpt lat="44.33566" lon="2.62987">
        <ele>639.4140625</ele>
        <time>2014-09-10T15:48:29Z</time>
      </trkpt>
      <trkpt lat="44.33568" lon="2.63007">
        <ele>640.3754883</ele>
        <time>2014-09-10T15:48:35Z</time>
      </trkpt>
      <trkpt lat="44.33569" lon="2.63019">
        <ele>640.855957</ele>
        <time>2014-09-10T15:48:39Z</time>
      </trkpt>
      <trkpt lat="44.33571" lon="2.63028">
        <ele>639.8947754</ele>
        <time>2014-09-10T15:48:42Z</time>
      </trkpt>
      <trkpt lat="44.33567" lon="2.63035">
        <ele>638.9335938</ele>
        <time>2014-09-10T15:48:46Z</time>
      </trkpt>
      <trkpt lat="44.33562" lon="2.6305">
        <ele>636.5302734</ele>
        <time>2014-09-10T15:48:52Z</time>
      </trkpt>
      <trkpt lat="44.3356" lon="2.63064">
        <ele>636.5302734</ele>
        <time>2014-09-10T15:48:56Z</time>
      </trkpt>
      <trkpt lat="44.33556" lon="2.63084">
        <ele>636.0495605</ele>
        <time>2014-09-10T15:49:01Z</time>
      </trkpt>
      <trkpt lat="44.33553" lon="2.63105">
        <ele>635.0881348</ele>
        <time>2014-09-10T15:49:07Z</time>
      </trkpt>
      <trkpt lat="44.33545" lon="2.63129">
        <ele>634.6074219</ele>
        <time>2014-09-10T15:49:14Z</time>
      </trkpt>
      <trkpt lat="44.33537" lon="2.63147">
        <ele>634.6074219</ele>
        <time>2014-09-10T15:49:20Z</time>
      </trkpt>
      <trkpt lat="44.33532" lon="2.6316">
        <ele>633.6459961</ele>
        <time>2014-09-10T15:49:24Z</time>
      </trkpt>
      <trkpt lat="44.33528" lon="2.63175">
        <ele>634.126709</ele>
        <time>2014-09-10T15:49:29Z</time>
      </trkpt>
      <trkpt lat="44.33526" lon="2.63192">
        <ele>634.6074219</ele>
        <time>2014-09-10T15:49:34Z</time>
      </trkpt>
      <trkpt lat="44.33519" lon="2.63215">
        <ele>634.6074219</ele>
        <time>2014-09-10T15:49:40Z</time>
      </trkpt>
      <trkpt lat="44.33517" lon="2.6323">
        <ele>634.6074219</ele>
        <time>2014-09-10T15:49:44Z</time>
      </trkpt>
      <trkpt lat="44.33512" lon="2.63249">
        <ele>634.6074219</ele>
        <time>2014-09-10T15:49:49Z</time>
      </trkpt>
      <trkpt lat="44.33505" lon="2.63269">
        <ele>632.6848145</ele>
        <time>2014-09-10T15:49:55Z</time>
      </trkpt>
      <trkpt lat="44.335" lon="2.63285">
        <ele>632.2041016</ele>
        <time>2014-09-10T15:50:00Z</time>
      </trkpt>
      <trkpt lat="44.33496" lon="2.63303">
        <ele>630.2814941</ele>
        <time>2014-09-10T15:50:05Z</time>
      </trkpt>
      <trkpt lat="44.33491" lon="2.63325">
        <ele>628.3588867</ele>
        <time>2014-09-10T15:50:11Z</time>
      </trkpt>
      <trkpt lat="44.33486" lon="2.63348">
        <ele>626.9169922</ele>
        <time>2014-09-10T15:50:17Z</time>
      </trkpt>
      <trkpt lat="44.33482" lon="2.63365">
        <ele>625.9555664</ele>
        <time>2014-09-10T15:50:22Z</time>
      </trkpt>
      <trkpt lat="44.33479" lon="2.63392">
        <ele>624.032959</ele>
        <time>2014-09-10T15:50:29Z</time>
      </trkpt>
      <trkpt lat="44.33478" lon="2.63415">
        <ele>623.5524902</ele>
        <time>2014-09-10T15:50:35Z</time>
      </trkpt>
      <trkpt lat="44.33477" lon="2.63431">
        <ele>624.032959</ele>
        <time>2014-09-10T15:50:39Z</time>
      </trkpt>
      <trkpt lat="44.33472" lon="2.63447">
        <ele>624.9943848</ele>
        <time>2014-09-10T15:50:44Z</time>
      </trkpt>
      <trkpt lat="44.33465" lon="2.63468">
        <ele>625.4748535</ele>
        <time>2014-09-10T15:50:50Z</time>
      </trkpt>
      <trkpt lat="44.33459" lon="2.63486">
        <ele>625.9555664</ele>
        <time>2014-09-10T15:50:56Z</time>
      </trkpt>
      <trkpt lat="44.33454" lon="2.63507">
        <ele>624.9943848</ele>
        <time>2014-09-10T15:51:02Z</time>
      </trkpt>
      <trkpt lat="44.33448" lon="2.6353">
        <ele>623.5524902</ele>
        <time>2014-09-10T15:51:08Z</time>
      </trkpt>
      <trkpt lat="44.33448" lon="2.63549">
        <ele>622.1103516</ele>
        <time>2014-09-10T15:51:13Z</time>
      </trkpt>
      <trkpt lat="44.33442" lon="2.63571">
        <ele>620.1877441</ele>
        <time>2014-09-10T15:51:19Z</time>
      </trkpt>
      <trkpt lat="44.33434" lon="2.63584">
        <ele>619.2263184</ele>
        <time>2014-09-10T15:51:24Z</time>
      </trkpt>
      <trkpt lat="44.33426" lon="2.63594">
        <ele>620.1877441</ele>
        <time>2014-09-10T15:51:29Z</time>
      </trkpt>
      <trkpt lat="44.33414" lon="2.63609">
        <ele>621.6296387</ele>
        <time>2014-09-10T15:51:36Z</time>
      </trkpt>
      <trkpt lat="44.33404" lon="2.63622">
        <ele>624.032959</ele>
        <time>2014-09-10T15:51:42Z</time>
      </trkpt>
      <trkpt lat="44.33396" lon="2.63632">
        <ele>626.4362793</ele>
        <time>2014-09-10T15:51:48Z</time>
      </trkpt>
      <trkpt lat="44.3339" lon="2.63641">
        <ele>627.8781738</ele>
        <time>2014-09-10T15:51:53Z</time>
      </trkpt>
      <trkpt lat="44.33382" lon="2.63654">
        <ele>629.8007813</ele>
        <time>2014-09-10T15:51:59Z</time>
      </trkpt>
      <trkpt lat="44.33373" lon="2.63669">
        <ele>632.2041016</ele>
        <time>2014-09-10T15:52:06Z</time>
      </trkpt>
      <trkpt lat="44.33367" lon="2.6368">
        <ele>633.6459961</ele>
        <time>2014-09-10T15:52:11Z</time>
      </trkpt>
      <trkpt lat="44.33357" lon="2.637">
        <ele>635.0881348</ele>
        <time>2014-09-10T15:52:19Z</time>
      </trkpt>
      <trkpt lat="44.33352" lon="2.63716">
        <ele>636.0495605</ele>
        <time>2014-09-10T15:52:25Z</time>
      </trkpt>
      <trkpt lat="44.33349" lon="2.63731">
        <ele>636.5302734</ele>
        <time>2014-09-10T15:52:30Z</time>
      </trkpt>
      <trkpt lat="44.33345" lon="2.63751">
        <ele>637.4914551</ele>
        <time>2014-09-10T15:52:37Z</time>
      </trkpt>
      <trkpt lat="44.3334" lon="2.63765">
        <ele>638.4528809</ele>
        <time>2014-09-10T15:52:42Z</time>
      </trkpt>
      <trkpt lat="44.33335" lon="2.63785">
        <ele>640.855957</ele>
        <time>2014-09-10T15:52:49Z</time>
      </trkpt>
      <trkpt lat="44.33331" lon="2.63798">
        <ele>642.7788086</ele>
        <time>2014-09-10T15:52:54Z</time>
      </trkpt>
      <trkpt lat="44.33327" lon="2.63812">
        <ele>643.7399902</ele>
        <time>2014-09-10T15:52:59Z</time>
      </trkpt>
      <trkpt lat="44.33323" lon="2.63826">
        <ele>645.6625977</ele>
        <time>2014-09-10T15:53:04Z</time>
      </trkpt>
      <trkpt lat="44.3332" lon="2.63845">
        <ele>646.6240234</ele>
        <time>2014-09-10T15:53:10Z</time>
      </trkpt>
      <trkpt lat="44.33317" lon="2.63858">
        <ele>648.065918</ele>
        <time>2014-09-10T15:53:14Z</time>
      </trkpt>
      <trkpt lat="44.33312" lon="2.6388">
        <ele>648.5463867</ele>
        <time>2014-09-10T15:53:21Z</time>
      </trkpt>
      <trkpt lat="44.33309" lon="2.63893">
        <ele>649.5078125</ele>
        <time>2014-09-10T15:53:25Z</time>
      </trkpt>
      <trkpt lat="44.33306" lon="2.63906">
        <ele>649.9885254</ele>
        <time>2014-09-10T15:53:30Z</time>
      </trkpt>
      <trkpt lat="44.33302" lon="2.63924">
        <ele>650.949707</ele>
        <time>2014-09-10T15:53:36Z</time>
      </trkpt>
      <trkpt lat="44.33299" lon="2.6394">
        <ele>651.4304199</ele>
        <time>2014-09-10T15:53:41Z</time>
      </trkpt>
      <trkpt lat="44.33298" lon="2.63964">
        <ele>651.9111328</ele>
        <time>2014-09-10T15:53:48Z</time>
      </trkpt>
      <trkpt lat="44.33298" lon="2.6398">
        <ele>652.3918457</ele>
        <time>2014-09-10T15:53:53Z</time>
      </trkpt>
      <trkpt lat="44.33293" lon="2.64001">
        <ele>653.3532715</ele>
        <time>2014-09-10T15:54:00Z</time>
      </trkpt>
      <trkpt lat="44.33288" lon="2.6402">
        <ele>654.3146973</ele>
        <time>2014-09-10T15:54:06Z</time>
      </trkpt>
      <trkpt lat="44.33282" lon="2.64037">
        <ele>653.3532715</ele>
        <time>2014-09-10T15:54:11Z</time>
      </trkpt>
      <trkpt lat="44.3328" lon="2.64055">
        <ele>653.3532715</ele>
        <time>2014-09-10T15:54:16Z</time>
      </trkpt>
      <trkpt lat="44.33276" lon="2.64086">
        <ele>652.8725586</ele>
        <time>2014-09-10T15:54:25Z</time>
      </trkpt>
      <trkpt lat="44.33271" lon="2.64108">
        <ele>652.8725586</ele>
        <time>2014-09-10T15:54:32Z</time>
      </trkpt>
      <trkpt lat="44.33267" lon="2.64124">
        <ele>652.3918457</ele>
        <time>2014-09-10T15:54:37Z</time>
      </trkpt>
      <trkpt lat="44.33263" lon="2.64141">
        <ele>653.3532715</ele>
        <time>2014-09-10T15:54:42Z</time>
      </trkpt>
      <trkpt lat="44.3326" lon="2.64154">
        <ele>653.8339844</ele>
        <time>2014-09-10T15:54:46Z</time>
      </trkpt>
      <trkpt lat="44.33257" lon="2.64174">
        <ele>655.7565918</ele>
        <time>2014-09-10T15:54:52Z</time>
      </trkpt>
      <trkpt lat="44.33252" lon="2.64193">
        <ele>656.7177734</ele>
        <time>2014-09-10T15:54:58Z</time>
      </trkpt>
      <trkpt lat="44.33244" lon="2.64215">
        <ele>658.1599121</ele>
        <time>2014-09-10T15:55:05Z</time>
      </trkpt>
      <trkpt lat="44.33237" lon="2.64236">
        <ele>658.1599121</ele>
        <time>2014-09-10T15:55:12Z</time>
      </trkpt>
      <trkpt lat="44.33231" lon="2.64253">
        <ele>658.1599121</ele>
        <time>2014-09-10T15:55:18Z</time>
      </trkpt>
      <trkpt lat="44.33223" lon="2.64272">
        <ele>658.6403809</ele>
        <time>2014-09-10T15:55:24Z</time>
      </trkpt>
      <trkpt lat="44.33216" lon="2.64289">
        <ele>659.1210938</ele>
        <time>2014-09-10T15:55:30Z</time>
      </trkpt>
      <trkpt lat="44.33209" lon="2.64307">
        <ele>659.1210938</ele>
        <time>2014-09-10T15:55:36Z</time>
      </trkpt>
      <trkpt lat="44.332" lon="2.64329">
        <ele>659.1210938</ele>
        <time>2014-09-10T15:55:43Z</time>
      </trkpt>
      <trkpt lat="44.33193" lon="2.64347">
        <ele>660.0822754</ele>
        <time>2014-09-10T15:55:49Z</time>
      </trkpt>
      <trkpt lat="44.33187" lon="2.64362">
        <ele>661.0437012</ele>
        <time>2014-09-10T15:55:54Z</time>
      </trkpt>
      <trkpt lat="44.33181" lon="2.64384">
        <ele>662.9663086</ele>
        <time>2014-09-10T15:56:01Z</time>
      </trkpt>
      <trkpt lat="44.33174" lon="2.64404">
        <ele>664.4082031</ele>
        <time>2014-09-10T15:56:07Z</time>
      </trkpt>
      <trkpt lat="44.3317" lon="2.64423">
        <ele>665.3696289</ele>
        <time>2014-09-10T15:56:13Z</time>
      </trkpt>
      <trkpt lat="44.33166" lon="2.64444">
        <ele>665.3696289</ele>
        <time>2014-09-10T15:56:19Z</time>
      </trkpt>
      <trkpt lat="44.33162" lon="2.64461">
        <ele>665.3696289</ele>
        <time>2014-09-10T15:56:24Z</time>
      </trkpt>
      <trkpt lat="44.33155" lon="2.64478">
        <ele>665.3696289</ele>
        <time>2014-09-10T15:56:29Z</time>
      </trkpt>
      <trkpt lat="44.33146" lon="2.64497">
        <ele>664.4082031</ele>
        <time>2014-09-10T15:56:35Z</time>
      </trkpt>
      <trkpt lat="44.3314" lon="2.64512">
        <ele>663.9274902</ele>
        <time>2014-09-10T15:56:40Z</time>
      </trkpt>
      <trkpt lat="44.33131" lon="2.64533">
        <ele>662.4855957</ele>
        <time>2014-09-10T15:56:47Z</time>
      </trkpt>
      <trkpt lat="44.33126" lon="2.64549">
        <ele>662.9663086</ele>
        <time>2014-09-10T15:56:52Z</time>
      </trkpt>
      <trkpt lat="44.33118" lon="2.64568">
        <ele>663.9274902</ele>
        <time>2014-09-10T15:56:58Z</time>
      </trkpt>
      <trkpt lat="44.3311" lon="2.64582">
        <ele>663.4470215</ele>
        <time>2014-09-10T15:57:03Z</time>
      </trkpt>
      <trkpt lat="44.33104" lon="2.64601">
        <ele>662.9663086</ele>
        <time>2014-09-10T15:57:09Z</time>
      </trkpt>
      <trkpt lat="44.33104" lon="2.64612">
        <ele>662.9663086</ele>
        <time>2014-09-10T15:57:12Z</time>
      </trkpt>
      <trkpt lat="44.33101" lon="2.6463">
        <ele>662.9663086</ele>
        <time>2014-09-10T15:57:17Z</time>
      </trkpt>
      <trkpt lat="44.33098" lon="2.64647">
        <ele>662.9663086</ele>
        <time>2014-09-10T15:57:22Z</time>
      </trkpt>
      <trkpt lat="44.33095" lon="2.6467">
        <ele>662.9663086</ele>
        <time>2014-09-10T15:57:28Z</time>
      </trkpt>
      <trkpt lat="44.33093" lon="2.64688">
        <ele>663.9274902</ele>
        <time>2014-09-10T15:57:33Z</time>
      </trkpt>
      <trkpt lat="44.33088" lon="2.64709">
        <ele>665.3696289</ele>
        <time>2014-09-10T15:57:39Z</time>
      </trkpt>
      <trkpt lat="44.33083" lon="2.6473">
        <ele>666.3308105</ele>
        <time>2014-09-10T15:57:45Z</time>
      </trkpt>
      <trkpt lat="44.33078" lon="2.64748">
        <ele>666.3308105</ele>
        <time>2014-09-10T15:57:50Z</time>
      </trkpt>
      <trkpt lat="44.33075" lon="2.64763">
        <ele>666.3308105</ele>
        <time>2014-09-10T15:57:54Z</time>
      </trkpt>
      <trkpt lat="44.33073" lon="2.64786">
        <ele>665.3696289</ele>
        <time>2014-09-10T15:58:00Z</time>
      </trkpt>
      <trkpt lat="44.33073" lon="2.64794">
        <ele>664.888916</ele>
        <time>2014-09-10T15:58:02Z</time>
      </trkpt>
      <trkpt lat="44.33069" lon="2.64814">
        <ele>662.9663086</ele>
        <time>2014-09-10T15:58:07Z</time>
      </trkpt>
      <trkpt lat="44.33066" lon="2.64829">
        <ele>661.5244141</ele>
        <time>2014-09-10T15:58:11Z</time>
      </trkpt>
      <trkpt lat="44.33062" lon="2.64844">
        <ele>660.5629883</ele>
        <time>2014-09-10T15:58:15Z</time>
      </trkpt>
      <trkpt lat="44.33056" lon="2.64865">
        <ele>657.6791992</ele>
        <time>2014-09-10T15:58:21Z</time>
      </trkpt>
      <trkpt lat="44.33055" lon="2.6488">
        <ele>655.2758789</ele>
        <time>2014-09-10T15:58:25Z</time>
      </trkpt>
      <trkpt lat="44.33053" lon="2.64895">
        <ele>651.9111328</ele>
        <time>2014-09-10T15:58:29Z</time>
      </trkpt>
      <trkpt lat="44.33052" lon="2.64914">
        <ele>648.065918</ele>
        <time>2014-09-10T15:58:34Z</time>
      </trkpt>
      <trkpt lat="44.33051" lon="2.64933">
        <ele>643.7399902</ele>
        <time>2014-09-10T15:58:39Z</time>
      </trkpt>
      <trkpt lat="44.33047" lon="2.64959">
        <ele>639.8947754</ele>
        <time>2014-09-10T15:58:46Z</time>
      </trkpt>
      <trkpt lat="44.33044" lon="2.64979">
        <ele>637.0107422</ele>
        <time>2014-09-10T15:58:52Z</time>
      </trkpt>
      <trkpt lat="44.33042" lon="2.65003">
        <ele>637.4914551</ele>
        <time>2014-09-10T15:58:58Z</time>
      </trkpt>
      <trkpt lat="44.33038" lon="2.65019">
        <ele>638.9335938</ele>
        <time>2014-09-10T15:59:03Z</time>
      </trkpt>
      <trkpt lat="44.33033" lon="2.6504">
        <ele>638.4528809</ele>
        <time>2014-09-10T15:59:09Z</time>
      </trkpt>
      <trkpt lat="44.33027" lon="2.65057">
        <ele>638.4528809</ele>
        <time>2014-09-10T15:59:15Z</time>
      </trkpt>
      <trkpt lat="44.33022" lon="2.65067">
        <ele>640.855957</ele>
        <time>2014-09-10T15:59:19Z</time>
      </trkpt>
      <trkpt lat="44.33017" lon="2.65078">
        <ele>641.3366699</ele>
        <time>2014-09-10T15:59:23Z</time>
      </trkpt>
      <trkpt lat="44.33008" lon="2.65087">
        <ele>641.3366699</ele>
        <time>2014-09-10T15:59:28Z</time>
      </trkpt>
      <trkpt lat="44.32997" lon="2.65092">
        <ele>641.3366699</ele>
        <time>2014-09-10T15:59:33Z</time>
      </trkpt>
      <trkpt lat="44.32989" lon="2.65104">
        <ele>642.2980957</ele>
        <time>2014-09-10T15:59:38Z</time>
      </trkpt>
      <trkpt lat="44.32979" lon="2.65119">
        <ele>647.1044922</ele>
        <time>2014-09-10T15:59:44Z</time>
      </trkpt>
      <trkpt lat="44.32968" lon="2.65133">
        <ele>647.5852051</ele>
        <time>2014-09-10T15:59:50Z</time>
      </trkpt>
      <trkpt lat="44.3296" lon="2.65142">
        <ele>646.1433105</ele>
        <time>2014-09-10T15:59:54Z</time>
      </trkpt>
      <trkpt lat="44.32949" lon="2.65154">
        <ele>644.2207031</ele>
        <time>2014-09-10T16:00:00Z</time>
      </trkpt>
      <trkpt lat="44.32945" lon="2.65157">
        <ele>643.7399902</ele>
        <time>2014-09-10T16:00:02Z</time>
      </trkpt>
      <trkpt lat="44.3294" lon="2.65157">
        <ele>645.6625977</ele>
        <time>2014-09-10T16:00:05Z</time>
      </trkpt>
      <trkpt lat="44.32934" lon="2.6516">
        <ele>647.1044922</ele>
        <time>2014-09-10T16:00:08Z</time>
      </trkpt>
      <trkpt lat="44.32926" lon="2.65173">
        <ele>646.6240234</ele>
        <time>2014-09-10T16:00:13Z</time>
      </trkpt>
      <trkpt lat="44.32919" lon="2.65182">
        <ele>644.7011719</ele>
        <time>2014-09-10T16:00:18Z</time>
      </trkpt>
      <trkpt lat="44.3291" lon="2.652">
        <ele>641.8173828</ele>
        <time>2014-09-10T16:00:25Z</time>
      </trkpt>
      <trkpt lat="44.32901" lon="2.65216">
        <ele>640.855957</ele>
        <time>2014-09-10T16:00:32Z</time>
      </trkpt>
      <trkpt lat="44.32893" lon="2.65236">
        <ele>640.855957</ele>
        <time>2014-09-10T16:00:39Z</time>
      </trkpt>
      <trkpt lat="44.3289" lon="2.6525">
        <ele>640.855957</ele>
        <time>2014-09-10T16:00:44Z</time>
      </trkpt>
      <trkpt lat="44.32887" lon="2.6527">
        <ele>646.6240234</ele>
        <time>2014-09-10T16:00:49Z</time>
      </trkpt>
      <trkpt lat="44.32885" lon="2.65274">
        <ele>647.1044922</ele>
        <time>2014-09-10T16:00:50Z</time>
      </trkpt>
      <trkpt lat="44.32883" lon="2.65295">
        <ele>651.9111328</ele>
        <time>2014-09-10T16:00:56Z</time>
      </trkpt>
      <trkpt lat="44.3288" lon="2.65316">
        <ele>656.2370605</ele>
        <time>2014-09-10T16:01:02Z</time>
      </trkpt>
      <trkpt lat="44.32881" lon="2.6533">
        <ele>659.1210938</ele>
        <time>2014-09-10T16:01:07Z</time>
      </trkpt>
      <trkpt lat="44.32881" lon="2.65351">
        <ele>660.5629883</ele>
        <time>2014-09-10T16:01:13Z</time>
      </trkpt>
      <trkpt lat="44.3288" lon="2.65373">
        <ele>662.005127</ele>
        <time>2014-09-10T16:01:19Z</time>
      </trkpt>
      <trkpt lat="44.32879" lon="2.6539">
        <ele>664.4082031</ele>
        <time>2014-09-10T16:01:24Z</time>
      </trkpt>
      <trkpt lat="44.32878" lon="2.65393">
        <ele>664.4082031</ele>
        <time>2014-09-10T16:01:25Z</time>
      </trkpt>
      <trkpt lat="44.32881" lon="2.65424">
        <ele>664.888916</ele>
        <time>2014-09-10T16:01:34Z</time>
      </trkpt>
      <trkpt lat="44.32886" lon="2.65439">
        <ele>664.4082031</ele>
        <time>2014-09-10T16:01:39Z</time>
      </trkpt>
      <trkpt lat="44.32894" lon="2.65451">
        <ele>663.4470215</ele>
        <time>2014-09-10T16:01:44Z</time>
      </trkpt>
      <trkpt lat="44.32905" lon="2.6546">
        <ele>663.4470215</ele>
        <time>2014-09-10T16:01:49Z</time>
      </trkpt>
      <trkpt lat="44.3291" lon="2.65466">
        <ele>663.4470215</ele>
        <time>2014-09-10T16:01:52Z</time>
      </trkpt>
      <trkpt lat="44.32918" lon="2.65479">
        <ele>663.9274902</ele>
        <time>2014-09-10T16:01:57Z</time>
      </trkpt>
      <trkpt lat="44.3292" lon="2.65481">
        <ele>663.9274902</ele>
        <time>2014-09-10T16:01:58Z</time>
      </trkpt>
      <trkpt lat="44.32925" lon="2.65496">
        <ele>663.4470215</ele>
        <time>2014-09-10T16:02:03Z</time>
      </trkpt>
      <trkpt lat="44.32922" lon="2.65507">
        <ele>662.4855957</ele>
        <time>2014-09-10T16:02:07Z</time>
      </trkpt>
      <trkpt lat="44.32922" lon="2.65516">
        <ele>662.9663086</ele>
        <time>2014-09-10T16:02:10Z</time>
      </trkpt>
      <trkpt lat="44.32918" lon="2.65535">
        <ele>664.4082031</ele>
        <time>2014-09-10T16:02:16Z</time>
      </trkpt>
      <trkpt lat="44.32915" lon="2.65549">
        <ele>665.3696289</ele>
        <time>2014-09-10T16:02:21Z</time>
      </trkpt>
      <trkpt lat="44.3291" lon="2.65566">
        <ele>665.8503418</ele>
        <time>2014-09-10T16:02:27Z</time>
      </trkpt>
      <trkpt lat="44.32907" lon="2.65579">
        <ele>665.8503418</ele>
        <time>2014-09-10T16:02:32Z</time>
      </trkpt>
      <trkpt lat="44.32906" lon="2.65582">
        <ele>665.3696289</ele>
        <time>2014-09-10T16:02:33Z</time>
      </trkpt>
      <trkpt lat="44.32902" lon="2.65592">
        <ele>667.2922363</ele>
        <time>2014-09-10T16:02:37Z</time>
      </trkpt>
      <trkpt lat="44.32892" lon="2.65608">
        <ele>668.2536621</ele>
        <time>2014-09-10T16:02:44Z</time>
      </trkpt>
      <trkpt lat="44.32886" lon="2.65621">
        <ele>670.6569824</ele>
        <time>2014-09-10T16:02:49Z</time>
      </trkpt>
      <trkpt lat="44.32888" lon="2.65636">
        <ele>674.0214844</ele>
        <time>2014-09-10T16:02:54Z</time>
      </trkpt>
      <trkpt lat="44.32894" lon="2.6565">
        <ele>676.9055176</ele>
        <time>2014-09-10T16:02:59Z</time>
      </trkpt>
      <trkpt lat="44.32896" lon="2.65666">
        <ele>680.2700195</ele>
        <time>2014-09-10T16:03:04Z</time>
      </trkpt>
      <trkpt lat="44.32896" lon="2.65679">
        <ele>682.192627</ele>
        <time>2014-09-10T16:03:08Z</time>
      </trkpt>
      <trkpt lat="44.32902" lon="2.65693">
        <ele>683.6345215</ele>
        <time>2014-09-10T16:03:13Z</time>
      </trkpt>
      <trkpt lat="44.32911" lon="2.65706">
        <ele>684.5961914</ele>
        <time>2014-09-10T16:03:18Z</time>
      </trkpt>
      <trkpt lat="44.32918" lon="2.65717">
        <ele>685.557373</ele>
        <time>2014-09-10T16:03:23Z</time>
      </trkpt>
      <trkpt lat="44.32928" lon="2.65725">
        <ele>686.9992676</ele>
        <time>2014-09-10T16:03:28Z</time>
      </trkpt>
      <trkpt lat="44.32938" lon="2.6573">
        <ele>687.9606934</ele>
        <time>2014-09-10T16:03:33Z</time>
      </trkpt>
      <trkpt lat="44.32944" lon="2.65732">
        <ele>688.4414063</ele>
        <time>2014-09-10T16:03:36Z</time>
      </trkpt>
      <trkpt lat="44.32955" lon="2.65736">
        <ele>688.4414063</ele>
        <time>2014-09-10T16:03:40Z</time>
      </trkpt>
      <trkpt lat="44.32965" lon="2.65739">
        <ele>688.9221191</ele>
        <time>2014-09-10T16:03:45Z</time>
      </trkpt>
      <trkpt lat="44.32973" lon="2.65743">
        <ele>689.4025879</ele>
        <time>2014-09-10T16:03:48Z</time>
      </trkpt>
      <trkpt lat="44.32989" lon="2.65754">
        <ele>689.4025879</ele>
        <time>2014-09-10T16:03:55Z</time>
      </trkpt>
      <trkpt lat="44.32997" lon="2.65758">
        <ele>689.4025879</ele>
        <time>2014-09-10T16:03:59Z</time>
      </trkpt>
      <trkpt lat="44.33006" lon="2.65762">
        <ele>689.8833008</ele>
        <time>2014-09-10T16:04:03Z</time>
      </trkpt>
      <trkpt lat="44.33019" lon="2.65774">
        <ele>688.4414063</ele>
        <time>2014-09-10T16:04:08Z</time>
      </trkpt>
      <trkpt lat="44.33023" lon="2.65776">
        <ele>687.4799805</ele>
        <time>2014-09-10T16:04:10Z</time>
      </trkpt>
      <trkpt lat="44.33034" lon="2.65778">
        <ele>687.4799805</ele>
        <time>2014-09-10T16:04:15Z</time>
      </trkpt>
      <trkpt lat="44.33037" lon="2.65781">
        <ele>687.4799805</ele>
        <time>2014-09-10T16:04:16Z</time>
      </trkpt>
      <trkpt lat="44.33045" lon="2.65798">
        <ele>686.5187988</ele>
        <time>2014-09-10T16:04:22Z</time>
      </trkpt>
      <trkpt lat="44.33046" lon="2.65809">
        <ele>686.5187988</ele>
        <time>2014-09-10T16:04:26Z</time>
      </trkpt>
      <trkpt lat="44.33049" lon="2.65823">
        <ele>687.9606934</ele>
        <time>2014-09-10T16:04:31Z</time>
      </trkpt>
      <trkpt lat="44.33057" lon="2.65841">
        <ele>688.9221191</ele>
        <time>2014-09-10T16:04:39Z</time>
      </trkpt>
      <trkpt lat="44.33062" lon="2.65849">
        <ele>689.4025879</ele>
        <time>2014-09-10T16:04:43Z</time>
      </trkpt>
      <trkpt lat="44.33067" lon="2.65861">
        <ele>690.3640137</ele>
        <time>2014-09-10T16:04:48Z</time>
      </trkpt>
      <trkpt lat="44.3307" lon="2.65877">
        <ele>692.767334</ele>
        <time>2014-09-10T16:04:55Z</time>
      </trkpt>
      <trkpt lat="44.3307" lon="2.65886">
        <ele>692.2866211</ele>
        <time>2014-09-10T16:04:59Z</time>
      </trkpt>
      <trkpt lat="44.3307" lon="2.65888">
        <ele>691.8059082</ele>
        <time>2014-09-10T16:05:00Z</time>
      </trkpt>
      <trkpt lat="44.33071" lon="2.659">
        <ele>691.8059082</ele>
        <time>2014-09-10T16:05:06Z</time>
      </trkpt>
      <trkpt lat="44.33072" lon="2.65906">
        <ele>691.3251953</ele>
        <time>2014-09-10T16:05:10Z</time>
      </trkpt>
      <trkpt lat="44.33077" lon="2.65921">
        <ele>692.2866211</ele>
        <time>2014-09-10T16:05:17Z</time>
      </trkpt>
      <trkpt lat="44.33079" lon="2.65926">
        <ele>692.2866211</ele>
        <time>2014-09-10T16:05:20Z</time>
      </trkpt>
      <trkpt lat="44.33084" lon="2.65934">
        <ele>693.7285156</ele>
        <time>2014-09-10T16:05:26Z</time>
      </trkpt>
      <trkpt lat="44.33087" lon="2.65937">
        <ele>694.2092285</ele>
        <time>2014-09-10T16:05:30Z</time>
      </trkpt>
      <trkpt lat="44.331" lon="2.65941">
        <ele>696.6125488</ele>
        <time>2014-09-10T16:05:38Z</time>
      </trkpt>
      <trkpt lat="44.33102" lon="2.65941">
        <ele>697.5737305</ele>
        <time>2014-09-10T16:05:39Z</time>
      </trkpt>
      <trkpt lat="44.33116" lon="2.65944">
        <ele>701.8999023</ele>
        <time>2014-09-10T16:05:45Z</time>
      </trkpt>
      <trkpt lat="44.33128" lon="2.65947">
        <ele>704.3032227</ele>
        <time>2014-09-10T16:05:50Z</time>
      </trkpt>
      <trkpt lat="44.33138" lon="2.65949">
        <ele>706.7062988</ele>
        <time>2014-09-10T16:05:55Z</time>
      </trkpt>
      <trkpt lat="44.33148" lon="2.65955">
        <ele>707.1870117</ele>
        <time>2014-09-10T16:06:00Z</time>
      </trkpt>
      <trkpt lat="44.33155" lon="2.65964">
        <ele>707.1870117</ele>
        <time>2014-09-10T16:06:04Z</time>
      </trkpt>
      <trkpt lat="44.33161" lon="2.65978">
        <ele>709.1096191</ele>
        <time>2014-09-10T16:06:09Z</time>
      </trkpt>
      <trkpt lat="44.33161" lon="2.6599">
        <ele>711.0322266</ele>
        <time>2014-09-10T16:06:13Z</time>
      </trkpt>
      <trkpt lat="44.33157" lon="2.65994">
        <ele>711.9936523</ele>
        <time>2014-09-10T16:06:15Z</time>
      </trkpt>
      <trkpt lat="44.33143" lon="2.66005">
        <ele>711.0322266</ele>
        <time>2014-09-10T16:06:23Z</time>
      </trkpt>
      <trkpt lat="44.33134" lon="2.66014">
        <ele>709.590332</ele>
        <time>2014-09-10T16:06:28Z</time>
      </trkpt>
      <trkpt lat="44.33132" lon="2.66018">
        <ele>708.6289063</ele>
        <time>2014-09-10T16:06:30Z</time>
      </trkpt>
      <trkpt lat="44.33121" lon="2.66029">
        <ele>706.2255859</ele>
        <time>2014-09-10T16:06:36Z</time>
      </trkpt>
      <trkpt lat="44.33111" lon="2.66034">
        <ele>706.2255859</ele>
        <time>2014-09-10T16:06:41Z</time>
      </trkpt>
      <trkpt lat="44.33101" lon="2.6604">
        <ele>705.7451172</ele>
        <time>2014-09-10T16:06:46Z</time>
      </trkpt>
      <trkpt lat="44.33091" lon="2.66046">
        <ele>706.7062988</ele>
        <time>2014-09-10T16:06:51Z</time>
      </trkpt>
      <trkpt lat="44.33077" lon="2.66058">
        <ele>706.7062988</ele>
        <time>2014-09-10T16:06:57Z</time>
      </trkpt>
      <trkpt lat="44.33063" lon="2.66071">
        <ele>708.6289063</ele>
        <time>2014-09-10T16:07:04Z</time>
      </trkpt>
      <trkpt lat="44.33054" lon="2.6608">
        <ele>709.590332</ele>
        <time>2014-09-10T16:07:09Z</time>
      </trkpt>
      <trkpt lat="44.33045" lon="2.66089">
        <ele>710.0708008</ele>
        <time>2014-09-10T16:07:13Z</time>
      </trkpt>
      <trkpt lat="44.3304" lon="2.66093">
        <ele>710.5515137</ele>
        <time>2014-09-10T16:07:16Z</time>
      </trkpt>
      <trkpt lat="44.33029" lon="2.66102">
        <ele>711.5129395</ele>
        <time>2014-09-10T16:07:21Z</time>
      </trkpt>
      <trkpt lat="44.33027" lon="2.66103">
        <ele>711.5129395</ele>
        <time>2014-09-10T16:07:22Z</time>
      </trkpt>
      <trkpt lat="44.33014" lon="2.66111">
        <ele>715.8388672</ele>
        <time>2014-09-10T16:07:28Z</time>
      </trkpt>
      <trkpt lat="44.33003" lon="2.66113">
        <ele>716.3195801</ele>
        <time>2014-09-10T16:07:33Z</time>
      </trkpt>
      <trkpt lat="44.32992" lon="2.6611">
        <ele>716.3195801</ele>
        <time>2014-09-10T16:07:37Z</time>
      </trkpt>
      <trkpt lat="44.3298" lon="2.66111">
        <ele>720.1647949</ele>
        <time>2014-09-10T16:07:42Z</time>
      </trkpt>
      <trkpt lat="44.32971" lon="2.66111">
        <ele>721.6066895</ele>
        <time>2014-09-10T16:07:45Z</time>
      </trkpt>
      <trkpt lat="44.3296" lon="2.66111">
        <ele>721.6066895</ele>
        <time>2014-09-10T16:07:50Z</time>
      </trkpt>
      <trkpt lat="44.32951" lon="2.66112">
        <ele>723.0488281</ele>
        <time>2014-09-10T16:07:54Z</time>
      </trkpt>
      <trkpt lat="44.32936" lon="2.66114">
        <ele>724.9714355</ele>
        <time>2014-09-10T16:08:00Z</time>
      </trkpt>
      <trkpt lat="44.32923" lon="2.66118">
        <ele>725.9326172</ele>
        <time>2014-09-10T16:08:06Z</time>
      </trkpt>
      <trkpt lat="44.32914" lon="2.66121">
        <ele>726.4133301</ele>
        <time>2014-09-10T16:08:10Z</time>
      </trkpt>
      <trkpt lat="44.32912" lon="2.66122">
        <ele>726.894043</ele>
        <time>2014-09-10T16:08:11Z</time>
      </trkpt>
      <trkpt lat="44.32902" lon="2.66126">
        <ele>728.3359375</ele>
        <time>2014-09-10T16:08:16Z</time>
      </trkpt>
      <trkpt lat="44.3289" lon="2.6613">
        <ele>728.8166504</ele>
        <time>2014-09-10T16:08:21Z</time>
      </trkpt>
      <trkpt lat="44.32886" lon="2.6613">
        <ele>729.2971191</ele>
        <time>2014-09-10T16:08:24Z</time>
      </trkpt>
      <trkpt lat="44.32874" lon="2.66136">
        <ele>732.6621094</ele>
        <time>2014-09-10T16:08:29Z</time>
      </trkpt>
      <trkpt lat="44.32866" lon="2.6614">
        <ele>731.2199707</ele>
        <time>2014-09-10T16:08:33Z</time>
      </trkpt>
      <trkpt lat="44.32854" lon="2.66147">
        <ele>732.1813965</ele>
        <time>2014-09-10T16:08:39Z</time>
      </trkpt>
      <trkpt lat="44.32843" lon="2.66153">
        <ele>731.2199707</ele>
        <time>2014-09-10T16:08:44Z</time>
      </trkpt>
      <trkpt lat="44.32831" lon="2.66162">
        <ele>729.777832</ele>
        <time>2014-09-10T16:08:50Z</time>
      </trkpt>
      <trkpt lat="44.32822" lon="2.66174">
        <ele>729.777832</ele>
        <time>2014-09-10T16:08:55Z</time>
      </trkpt>
      <trkpt lat="44.32815" lon="2.66185">
        <ele>731.7004395</ele>
        <time>2014-09-10T16:09:00Z</time>
      </trkpt>
      <trkpt lat="44.32808" lon="2.66202">
        <ele>729.777832</ele>
        <time>2014-09-10T16:09:05Z</time>
      </trkpt>
      <trkpt lat="44.328" lon="2.66225">
        <ele>728.3359375</ele>
        <time>2014-09-10T16:09:12Z</time>
      </trkpt>
      <trkpt lat="44.32794" lon="2.66242">
        <ele>728.3359375</ele>
        <time>2014-09-10T16:09:17Z</time>
      </trkpt>
      <trkpt lat="44.32793" lon="2.66255">
        <ele>729.2971191</ele>
        <time>2014-09-10T16:09:21Z</time>
      </trkpt>
      <trkpt lat="44.32795" lon="2.66272">
        <ele>731.7004395</ele>
        <time>2014-09-10T16:09:26Z</time>
      </trkpt>
      <trkpt lat="44.32796" lon="2.66281">
        <ele>732.1813965</ele>
        <time>2014-09-10T16:09:29Z</time>
      </trkpt>
      <trkpt lat="44.32802" lon="2.6629">
        <ele>733.1425781</ele>
        <time>2014-09-10T16:09:33Z</time>
      </trkpt>
      <trkpt lat="44.32814" lon="2.66295">
        <ele>734.1040039</ele>
        <time>2014-09-10T16:09:38Z</time>
      </trkpt>
      <trkpt lat="44.32816" lon="2.66295">
        <ele>735.0654297</ele>
        <time>2014-09-10T16:09:39Z</time>
      </trkpt>
      <trkpt lat="44.32829" lon="2.6629">
        <ele>736.987793</ele>
        <time>2014-09-10T16:09:45Z</time>
      </trkpt>
      <trkpt lat="44.32838" lon="2.66285">
        <ele>738.4299316</ele>
        <time>2014-09-10T16:09:50Z</time>
      </trkpt>
      <trkpt lat="44.3285" lon="2.66286">
        <ele>740.3525391</ele>
        <time>2014-09-10T16:09:55Z</time>
      </trkpt>
      <trkpt lat="44.32861" lon="2.66293">
        <ele>742.2751465</ele>
        <time>2014-09-10T16:10:00Z</time>
      </trkpt>
      <trkpt lat="44.32869" lon="2.663">
        <ele>743.2363281</ele>
        <time>2014-09-10T16:10:04Z</time>
      </trkpt>
      <trkpt lat="44.3288" lon="2.66312">
        <ele>744.1977539</ele>
        <time>2014-09-10T16:10:10Z</time>
      </trkpt>
      <trkpt lat="44.32891" lon="2.66325">
        <ele>745.1589355</ele>
        <time>2014-09-10T16:10:16Z</time>
      </trkpt>
      <trkpt lat="44.32902" lon="2.66335">
        <ele>746.1203613</ele>
        <time>2014-09-10T16:10:22Z</time>
      </trkpt>
      <trkpt lat="44.32916" lon="2.66341">
        <ele>746.6010742</ele>
        <time>2014-09-10T16:10:28Z</time>
      </trkpt>
      <trkpt lat="44.32926" lon="2.66346">
        <ele>748.5236816</ele>
        <time>2014-09-10T16:10:33Z</time>
      </trkpt>
      <trkpt lat="44.32932" lon="2.66353">
        <ele>748.5236816</ele>
        <time>2014-09-10T16:10:37Z</time>
      </trkpt>
      <trkpt lat="44.32936" lon="2.66367">
        <ele>748.5236816</ele>
        <time>2014-09-10T16:10:42Z</time>
      </trkpt>
      <trkpt lat="44.32931" lon="2.66385">
        <ele>747.5622559</ele>
        <time>2014-09-10T16:10:48Z</time>
      </trkpt>
      <trkpt lat="44.32921" lon="2.66403">
        <ele>747.5622559</ele>
        <time>2014-09-10T16:10:56Z</time>
      </trkpt>
      <trkpt lat="44.32911" lon="2.66421">
        <ele>747.5622559</ele>
        <time>2014-09-10T16:11:03Z</time>
      </trkpt>
      <trkpt lat="44.32896" lon="2.66435">
        <ele>747.5622559</ele>
        <time>2014-09-10T16:11:11Z</time>
      </trkpt>
      <trkpt lat="44.32885" lon="2.66442">
        <ele>748.0432129</ele>
        <time>2014-09-10T16:11:16Z</time>
      </trkpt>
      <trkpt lat="44.32875" lon="2.66442">
        <ele>748.5236816</ele>
        <time>2014-09-10T16:11:21Z</time>
      </trkpt>
      <trkpt lat="44.32866" lon="2.66443">
        <ele>751.4077148</ele>
        <time>2014-09-10T16:11:25Z</time>
      </trkpt>
      <trkpt lat="44.32855" lon="2.66447">
        <ele>754.7722168</ele>
        <time>2014-09-10T16:11:30Z</time>
      </trkpt>
      <trkpt lat="44.32844" lon="2.66456">
        <ele>756.6948242</ele>
        <time>2014-09-10T16:11:35Z</time>
      </trkpt>
      <trkpt lat="44.32831" lon="2.66464">
        <ele>759.0981445</ele>
        <time>2014-09-10T16:11:41Z</time>
      </trkpt>
      <trkpt lat="44.32817" lon="2.66471">
        <ele>759.0981445</ele>
        <time>2014-09-10T16:11:47Z</time>
      </trkpt>
      <trkpt lat="44.32805" lon="2.66477">
        <ele>758.1369629</ele>
        <time>2014-09-10T16:11:52Z</time>
      </trkpt>
      <trkpt lat="44.3279" lon="2.66486">
        <ele>760.0593262</ele>
        <time>2014-09-10T16:11:58Z</time>
      </trkpt>
      <trkpt lat="44.32778" lon="2.66492">
        <ele>761.9821777</ele>
        <time>2014-09-10T16:12:04Z</time>
      </trkpt>
      <trkpt lat="44.32764" lon="2.66499">
        <ele>762.9433594</ele>
        <time>2014-09-10T16:12:10Z</time>
      </trkpt>
      <trkpt lat="44.32748" lon="2.66511">
        <ele>763.4240723</ele>
        <time>2014-09-10T16:12:17Z</time>
      </trkpt>
      <trkpt lat="44.32736" lon="2.66518">
        <ele>763.4240723</ele>
        <time>2014-09-10T16:12:22Z</time>
      </trkpt>
      <trkpt lat="44.32724" lon="2.66527">
        <ele>762.4626465</ele>
        <time>2014-09-10T16:12:27Z</time>
      </trkpt>
      <trkpt lat="44.32714" lon="2.66534">
        <ele>762.4626465</ele>
        <time>2014-09-10T16:12:31Z</time>
      </trkpt>
      <trkpt lat="44.32701" lon="2.66544">
        <ele>762.9433594</ele>
        <time>2014-09-10T16:12:37Z</time>
      </trkpt>
      <trkpt lat="44.3269" lon="2.66551">
        <ele>764.385498</ele>
        <time>2014-09-10T16:12:42Z</time>
      </trkpt>
      <trkpt lat="44.32675" lon="2.66563">
        <ele>766.3081055</ele>
        <time>2014-09-10T16:12:49Z</time>
      </trkpt>
      <trkpt lat="44.32667" lon="2.66574">
        <ele>767.2695313</ele>
        <time>2014-09-10T16:12:54Z</time>
      </trkpt>
      <trkpt lat="44.32661" lon="2.66586">
        <ele>768.2307129</ele>
        <time>2014-09-10T16:12:59Z</time>
      </trkpt>
      <trkpt lat="44.32657" lon="2.66604">
        <ele>770.6340332</ele>
        <time>2014-09-10T16:13:05Z</time>
      </trkpt>
      <trkpt lat="44.32651" lon="2.66621">
        <ele>772.0759277</ele>
        <time>2014-09-10T16:13:11Z</time>
      </trkpt>
      <trkpt lat="44.32647" lon="2.66637">
        <ele>773.9985352</ele>
        <time>2014-09-10T16:13:16Z</time>
      </trkpt>
      <trkpt lat="44.32645" lon="2.66655">
        <ele>775.9211426</ele>
        <time>2014-09-10T16:13:21Z</time>
      </trkpt>
      <trkpt lat="44.32644" lon="2.66674">
        <ele>777.84375</ele>
        <time>2014-09-10T16:13:26Z</time>
      </trkpt>
      <trkpt lat="44.32641" lon="2.66696">
        <ele>779.2856445</ele>
        <time>2014-09-10T16:13:32Z</time>
      </trkpt>
      <trkpt lat="44.32638" lon="2.66713">
        <ele>781.2087402</ele>
        <time>2014-09-10T16:13:37Z</time>
      </trkpt>
      <trkpt lat="44.32633" lon="2.66728">
        <ele>779.7663574</ele>
        <time>2014-09-10T16:13:42Z</time>
      </trkpt>
      <trkpt lat="44.3263" lon="2.66752">
        <ele>778.3244629</ele>
        <time>2014-09-10T16:13:49Z</time>
      </trkpt>
      <trkpt lat="44.32625" lon="2.66772">
        <ele>778.8051758</ele>
        <time>2014-09-10T16:13:55Z</time>
      </trkpt>
      <trkpt lat="44.32624" lon="2.66781">
        <ele>779.2856445</ele>
        <time>2014-09-10T16:13:58Z</time>
      </trkpt>
      <trkpt lat="44.32629" lon="2.66798">
        <ele>779.7663574</ele>
        <time>2014-09-10T16:14:04Z</time>
      </trkpt>
      <trkpt lat="44.3263" lon="2.668">
        <ele>780.2473145</ele>
        <time>2014-09-10T16:14:05Z</time>
      </trkpt>
      <trkpt lat="44.32638" lon="2.66817">
        <ele>781.689209</ele>
        <time>2014-09-10T16:14:11Z</time>
      </trkpt>
      <trkpt lat="44.32645" lon="2.66824">
        <ele>782.1699219</ele>
        <time>2014-09-10T16:14:15Z</time>
      </trkpt>
      <trkpt lat="44.32654" lon="2.66834">
        <ele>782.6506348</ele>
        <time>2014-09-10T16:14:21Z</time>
      </trkpt>
      <trkpt lat="44.3266" lon="2.66838">
        <ele>781.2087402</ele>
        <time>2014-09-10T16:14:29Z</time>
      </trkpt>
      <trkpt lat="44.32667" lon="2.66839">
        <ele>780.7280273</ele>
        <time>2014-09-10T16:14:38Z</time>
      </trkpt>
      <trkpt lat="44.32671" lon="2.6684">
        <ele>781.2087402</ele>
        <time>2014-09-10T16:14:43Z</time>
      </trkpt>
      <trkpt lat="44.32673" lon="2.66841">
        <ele>781.689209</ele>
        <time>2014-09-10T16:14:48Z</time>
      </trkpt>
      <trkpt lat="44.32678" lon="2.66841">
        <ele>781.2087402</ele>
        <time>2014-09-10T16:14:53Z</time>
      </trkpt>
      <trkpt lat="44.32687" lon="2.66841">
        <ele>781.2087402</ele>
        <time>2014-09-10T16:14:59Z</time>
      </trkpt>
      <trkpt lat="44.32705" lon="2.66841">
        <ele>780.7280273</ele>
        <time>2014-09-10T16:15:06Z</time>
      </trkpt>
      <trkpt lat="44.32718" lon="2.66843">
        <ele>781.2087402</ele>
        <time>2014-09-10T16:15:11Z</time>
      </trkpt>
      <trkpt lat="44.32731" lon="2.66845">
        <ele>781.689209</ele>
        <time>2014-09-10T16:15:16Z</time>
      </trkpt>
      <trkpt lat="44.32744" lon="2.66845">
        <ele>782.6506348</ele>
        <time>2014-09-10T16:15:21Z</time>
      </trkpt>
      <trkpt lat="44.32755" lon="2.66844">
        <ele>782.1699219</ele>
        <time>2014-09-10T16:15:25Z</time>
      </trkpt>
      <trkpt lat="44.32769" lon="2.66842">
        <ele>781.2087402</ele>
        <time>2014-09-10T16:15:30Z</time>
      </trkpt>
      <trkpt lat="44.32782" lon="2.6684">
        <ele>781.2087402</ele>
        <time>2014-09-10T16:15:35Z</time>
      </trkpt>
      <trkpt lat="44.32795" lon="2.66841">
        <ele>780.7280273</ele>
        <time>2014-09-10T16:15:39Z</time>
      </trkpt>
      <trkpt lat="44.32799" lon="2.66838">
        <ele>780.7280273</ele>
        <time>2014-09-10T16:15:41Z</time>
      </trkpt>
      <trkpt lat="44.32807" lon="2.66837">
        <ele>781.2087402</ele>
        <time>2014-09-10T16:15:44Z</time>
      </trkpt>
      <trkpt lat="44.32819" lon="2.66836">
        <ele>781.689209</ele>
        <time>2014-09-10T16:15:48Z</time>
      </trkpt>
      <trkpt lat="44.32827" lon="2.66835">
        <ele>781.2087402</ele>
        <time>2014-09-10T16:15:51Z</time>
      </trkpt>
      <trkpt lat="44.32839" lon="2.66838">
        <ele>779.2856445</ele>
        <time>2014-09-10T16:15:56Z</time>
      </trkpt>
      <trkpt lat="44.32847" lon="2.66838">
        <ele>777.84375</ele>
        <time>2014-09-10T16:16:00Z</time>
      </trkpt>
      <trkpt lat="44.32859" lon="2.6684">
        <ele>776.4018555</ele>
        <time>2014-09-10T16:16:04Z</time>
      </trkpt>
      <trkpt lat="44.32871" lon="2.66838">
        <ele>775.9211426</ele>
        <time>2014-09-10T16:16:08Z</time>
      </trkpt>
      <trkpt lat="44.32883" lon="2.66836">
        <ele>775.9211426</ele>
        <time>2014-09-10T16:16:12Z</time>
      </trkpt>
      <trkpt lat="44.32885" lon="2.66836">
        <ele>774.9599609</ele>
        <time>2014-09-10T16:16:13Z</time>
      </trkpt>
      <trkpt lat="44.329" lon="2.66835">
        <ele>777.3632813</ele>
        <time>2014-09-10T16:16:19Z</time>
      </trkpt>
      <trkpt lat="44.32913" lon="2.66835">
        <ele>778.8051758</ele>
        <time>2014-09-10T16:16:23Z</time>
      </trkpt>
      <trkpt lat="44.3293" lon="2.66833">
        <ele>779.2856445</ele>
        <time>2014-09-10T16:16:28Z</time>
      </trkpt>
      <trkpt lat="44.32944" lon="2.66828">
        <ele>776.8825684</ele>
        <time>2014-09-10T16:16:33Z</time>
      </trkpt>
      <trkpt lat="44.32958" lon="2.66821">
        <ele>773.5180664</ele>
        <time>2014-09-10T16:16:38Z</time>
      </trkpt>
      <trkpt lat="44.32969" lon="2.66816">
        <ele>770.1533203</ele>
        <time>2014-09-10T16:16:42Z</time>
      </trkpt>
      <trkpt lat="44.32982" lon="2.66809">
        <ele>766.7888184</ele>
        <time>2014-09-10T16:16:47Z</time>
      </trkpt>
      <trkpt lat="44.32994" lon="2.66803">
        <ele>765.8276367</ele>
        <time>2014-09-10T16:16:51Z</time>
      </trkpt>
      <trkpt lat="44.33005" lon="2.66801">
        <ele>763.904541</ele>
        <time>2014-09-10T16:16:55Z</time>
      </trkpt>
      <trkpt lat="44.33016" lon="2.66796">
        <ele>761.9821777</ele>
        <time>2014-09-10T16:16:59Z</time>
      </trkpt>
      <trkpt lat="44.33029" lon="2.6679">
        <ele>759.5788574</ele>
        <time>2014-09-10T16:17:04Z</time>
      </trkpt>
      <trkpt lat="44.33039" lon="2.66784">
        <ele>757.1755371</ele>
        <time>2014-09-10T16:17:08Z</time>
      </trkpt>
      <trkpt lat="44.33056" lon="2.66773">
        <ele>752.3688965</ele>
        <time>2014-09-10T16:17:14Z</time>
      </trkpt>
      <trkpt lat="44.33071" lon="2.66767">
        <ele>750.4465332</ele>
        <time>2014-09-10T16:17:19Z</time>
      </trkpt>
      <trkpt lat="44.33089" lon="2.66766">
        <ele>748.5236816</ele>
        <time>2014-09-10T16:17:25Z</time>
      </trkpt>
      <trkpt lat="44.33099" lon="2.66766">
        <ele>749.0043945</ele>
        <time>2014-09-10T16:17:29Z</time>
      </trkpt>
      <trkpt lat="44.33113" lon="2.66765">
        <ele>751.4077148</ele>
        <time>2014-09-10T16:17:34Z</time>
      </trkpt>
      <trkpt lat="44.33123" lon="2.66762">
        <ele>752.3688965</ele>
        <time>2014-09-10T16:17:38Z</time>
      </trkpt>
      <trkpt lat="44.33139" lon="2.66754">
        <ele>753.8110352</ele>
        <time>2014-09-10T16:17:43Z</time>
      </trkpt>
      <trkpt lat="44.33151" lon="2.66751">
        <ele>753.8110352</ele>
        <time>2014-09-10T16:17:47Z</time>
      </trkpt>
      <trkpt lat="44.3316" lon="2.66746">
        <ele>751.4077148</ele>
        <time>2014-09-10T16:17:51Z</time>
      </trkpt>
      <trkpt lat="44.33175" lon="2.66739">
        <ele>748.0432129</ele>
        <time>2014-09-10T16:17:57Z</time>
      </trkpt>
      <trkpt lat="44.33188" lon="2.66733">
        <ele>745.6396484</ele>
        <time>2014-09-10T16:18:02Z</time>
      </trkpt>
      <trkpt lat="44.33201" lon="2.66728">
        <ele>743.717041</ele>
        <time>2014-09-10T16:18:07Z</time>
      </trkpt>
      <trkpt lat="44.33214" lon="2.6672">
        <ele>740.3525391</ele>
        <time>2014-09-10T16:18:12Z</time>
      </trkpt>
      <trkpt lat="44.33228" lon="2.66711">
        <ele>737.9492188</ele>
        <time>2014-09-10T16:18:18Z</time>
      </trkpt>
      <trkpt lat="44.33234" lon="2.66708">
        <ele>736.987793</ele>
        <time>2014-09-10T16:18:20Z</time>
      </trkpt>
      <trkpt lat="44.33247" lon="2.66701">
        <ele>734.1040039</ele>
        <time>2014-09-10T16:18:25Z</time>
      </trkpt>
      <trkpt lat="44.33263" lon="2.66692">
        <ele>731.7004395</ele>
        <time>2014-09-10T16:18:31Z</time>
      </trkpt>
      <trkpt lat="44.33275" lon="2.66687">
        <ele>731.7004395</ele>
        <time>2014-09-10T16:18:35Z</time>
      </trkpt>
      <trkpt lat="44.33278" lon="2.66686">
        <ele>731.2199707</ele>
        <time>2014-09-10T16:18:36Z</time>
      </trkpt>
      <trkpt lat="44.33292" lon="2.66674">
        <ele>727.8552246</ele>
        <time>2014-09-10T16:18:42Z</time>
      </trkpt>
      <trkpt lat="44.33304" lon="2.66664">
        <ele>726.894043</ele>
        <time>2014-09-10T16:18:47Z</time>
      </trkpt>
      <trkpt lat="44.33315" lon="2.66655">
        <ele>726.894043</ele>
        <time>2014-09-10T16:18:51Z</time>
      </trkpt>
      <trkpt lat="44.33325" lon="2.66649">
        <ele>724.4907227</ele>
        <time>2014-09-10T16:18:55Z</time>
      </trkpt>
      <trkpt lat="44.33336" lon="2.6664">
        <ele>720.1647949</ele>
        <time>2014-09-10T16:19:00Z</time>
      </trkpt>
      <trkpt lat="44.33347" lon="2.6663">
        <ele>720.1647949</ele>
        <time>2014-09-10T16:19:04Z</time>
      </trkpt>
      <trkpt lat="44.33357" lon="2.6662">
        <ele>718.2421875</ele>
        <time>2014-09-10T16:19:09Z</time>
      </trkpt>
      <trkpt lat="44.33369" lon="2.66613">
        <ele>718.7229004</ele>
        <time>2014-09-10T16:19:13Z</time>
      </trkpt>
      <trkpt lat="44.33381" lon="2.66605">
        <ele>720.1647949</ele>
        <time>2014-09-10T16:19:18Z</time>
      </trkpt>
      <trkpt lat="44.33393" lon="2.66598">
        <ele>719.6843262</ele>
        <time>2014-09-10T16:19:23Z</time>
      </trkpt>
      <trkpt lat="44.33405" lon="2.66589">
        <ele>720.6455078</ele>
        <time>2014-09-10T16:19:28Z</time>
      </trkpt>
      <trkpt lat="44.33414" lon="2.66586">
        <ele>721.6066895</ele>
        <time>2014-09-10T16:19:32Z</time>
      </trkpt>
      <trkpt lat="44.33425" lon="2.66572">
        <ele>721.6066895</ele>
        <time>2014-09-10T16:19:37Z</time>
      </trkpt>
      <trkpt lat="44.33435" lon="2.66566">
        <ele>722.5681152</ele>
        <time>2014-09-10T16:19:41Z</time>
      </trkpt>
      <trkpt lat="44.33448" lon="2.66552">
        <ele>723.0488281</ele>
        <time>2014-09-10T16:19:47Z</time>
      </trkpt>
      <trkpt lat="44.33457" lon="2.66538">
        <ele>719.6843262</ele>
        <time>2014-09-10T16:19:52Z</time>
      </trkpt>
      <trkpt lat="44.33468" lon="2.66525">
        <ele>716.800293</ele>
        <time>2014-09-10T16:19:57Z</time>
      </trkpt>
      <trkpt lat="44.33476" lon="2.66515">
        <ele>714.3967285</ele>
        <time>2014-09-10T16:20:01Z</time>
      </trkpt>
      <trkpt lat="44.33482" lon="2.66499">
        <ele>711.9936523</ele>
        <time>2014-09-10T16:20:06Z</time>
      </trkpt>
      <trkpt lat="44.33478" lon="2.66484">
        <ele>711.0322266</ele>
        <time>2014-09-10T16:20:10Z</time>
      </trkpt>
      <trkpt lat="44.3348" lon="2.66472">
        <ele>709.1096191</ele>
        <time>2014-09-10T16:20:13Z</time>
      </trkpt>
      <trkpt lat="44.33483" lon="2.6646">
        <ele>706.2255859</ele>
        <time>2014-09-10T16:20:17Z</time>
      </trkpt>
      <trkpt lat="44.33485" lon="2.66451">
        <ele>702.861084</ele>
        <time>2014-09-10T16:20:20Z</time>
      </trkpt>
      <trkpt lat="44.33485" lon="2.66432">
        <ele>698.5349121</ele>
        <time>2014-09-10T16:20:26Z</time>
      </trkpt>
      <trkpt lat="44.33486" lon="2.66429">
        <ele>697.5737305</ele>
        <time>2014-09-10T16:20:27Z</time>
      </trkpt>
      <trkpt lat="44.33486" lon="2.66415">
        <ele>691.3251953</ele>
        <time>2014-09-10T16:20:32Z</time>
      </trkpt>
      <trkpt lat="44.33483" lon="2.66405">
        <ele>686.5187988</ele>
        <time>2014-09-10T16:20:36Z</time>
      </trkpt>
      <trkpt lat="44.33488" lon="2.66393">
        <ele>683.1538086</ele>
        <time>2014-09-10T16:20:40Z</time>
      </trkpt>
      <trkpt lat="44.33492" lon="2.66393">
        <ele>683.1538086</ele>
        <time>2014-09-10T16:20:42Z</time>
      </trkpt>
      <trkpt lat="44.33502" lon="2.66401">
        <ele>682.6733398</ele>
        <time>2014-09-10T16:20:48Z</time>
      </trkpt>
      <trkpt lat="44.3351" lon="2.66401">
        <ele>685.557373</ele>
        <time>2014-09-10T16:20:52Z</time>
      </trkpt>
      <trkpt lat="44.33523" lon="2.66403">
        <ele>689.8833008</ele>
        <time>2014-09-10T16:20:58Z</time>
      </trkpt>
      <trkpt lat="44.3353" lon="2.66405">
        <ele>696.6125488</ele>
        <time>2014-09-10T16:21:02Z</time>
      </trkpt>
      <trkpt lat="44.3354" lon="2.66408">
        <ele>698.0544434</ele>
        <time>2014-09-10T16:21:06Z</time>
      </trkpt>
      <trkpt lat="44.33551" lon="2.66416">
        <ele>697.0930176</ele>
        <time>2014-09-10T16:21:10Z</time>
      </trkpt>
      <trkpt lat="44.33564" lon="2.66434">
        <ele>694.2092285</ele>
        <time>2014-09-10T16:21:15Z</time>
      </trkpt>
      <trkpt lat="44.33573" lon="2.66452">
        <ele>691.8059082</ele>
        <time>2014-09-10T16:21:20Z</time>
      </trkpt>
      <trkpt lat="44.33575" lon="2.6647">
        <ele>690.3640137</ele>
        <time>2014-09-10T16:21:24Z</time>
      </trkpt>
      <trkpt lat="44.33571" lon="2.66494">
        <ele>688.9221191</ele>
        <time>2014-09-10T16:21:31Z</time>
      </trkpt>
      <trkpt lat="44.33563" lon="2.66513">
        <ele>688.4414063</ele>
        <time>2014-09-10T16:21:36Z</time>
      </trkpt>
      <trkpt lat="44.33557" lon="2.66529">
        <ele>687.4799805</ele>
        <time>2014-09-10T16:21:41Z</time>
      </trkpt>
      <trkpt lat="44.33549" lon="2.66549">
        <ele>687.9606934</ele>
        <time>2014-09-10T16:21:47Z</time>
      </trkpt>
      <trkpt lat="44.33544" lon="2.66569">
        <ele>688.4414063</ele>
        <time>2014-09-10T16:21:53Z</time>
      </trkpt>
      <trkpt lat="44.33539" lon="2.66583">
        <ele>688.4414063</ele>
        <time>2014-09-10T16:21:57Z</time>
      </trkpt>
      <trkpt lat="44.33531" lon="2.666">
        <ele>688.4414063</ele>
        <time>2014-09-10T16:22:02Z</time>
      </trkpt>
      <trkpt lat="44.33524" lon="2.66614">
        <ele>686.9992676</ele>
        <time>2014-09-10T16:22:06Z</time>
      </trkpt>
      <trkpt lat="44.33514" lon="2.66635">
        <ele>684.5961914</ele>
        <time>2014-09-10T16:22:12Z</time>
      </trkpt>
      <trkpt lat="44.3351" lon="2.66648">
        <ele>682.6733398</ele>
        <time>2014-09-10T16:22:16Z</time>
      </trkpt>
      <trkpt lat="44.33503" lon="2.66664">
        <ele>680.2700195</ele>
        <time>2014-09-10T16:22:21Z</time>
      </trkpt>
      <trkpt lat="44.33497" lon="2.66681">
        <ele>678.3474121</ele>
        <time>2014-09-10T16:22:26Z</time>
      </trkpt>
      <trkpt lat="44.33489" lon="2.66703">
        <ele>678.3474121</ele>
        <time>2014-09-10T16:22:32Z</time>
      </trkpt>
      <trkpt lat="44.33479" lon="2.6672">
        <ele>676.4248047</ele>
        <time>2014-09-10T16:22:37Z</time>
      </trkpt>
      <trkpt lat="44.33471" lon="2.66732">
        <ele>674.0214844</ele>
        <time>2014-09-10T16:22:41Z</time>
      </trkpt>
      <trkpt lat="44.33464" lon="2.66751">
        <ele>671.6181641</ele>
        <time>2014-09-10T16:22:47Z</time>
      </trkpt>
      <trkpt lat="44.33467" lon="2.6677">
        <ele>672.5795898</ele>
        <time>2014-09-10T16:22:52Z</time>
      </trkpt>
      <trkpt lat="44.33464" lon="2.66788">
        <ele>669.6958008</ele>
        <time>2014-09-10T16:22:57Z</time>
      </trkpt>
      <trkpt lat="44.33468" lon="2.66785">
        <ele>665.3696289</ele>
        <time>2014-09-10T16:23:01Z</time>
      </trkpt>
      <trkpt lat="44.33469" lon="2.66768">
        <ele>662.005127</ele>
        <time>2014-09-10T16:23:06Z</time>
      </trkpt>
      <trkpt lat="44.33469" lon="2.6675">
        <ele>660.5629883</ele>
        <time>2014-09-10T16:23:11Z</time>
      </trkpt>
      <trkpt lat="44.3347" lon="2.66743">
        <ele>660.5629883</ele>
        <time>2014-09-10T16:23:13Z</time>
      </trkpt>
      <trkpt lat="44.33481" lon="2.66734">
        <ele>662.005127</ele>
        <time>2014-09-10T16:23:17Z</time>
      </trkpt>
      <trkpt lat="44.33492" lon="2.66719">
        <ele>665.8503418</ele>
        <time>2014-09-10T16:23:22Z</time>
      </trkpt>
      <trkpt lat="44.33494" lon="2.66712">
        <ele>667.7727051</ele>
        <time>2014-09-10T16:23:24Z</time>
      </trkpt>
      <trkpt lat="44.33504" lon="2.66697">
        <ele>668.2536621</ele>
        <time>2014-09-10T16:23:30Z</time>
      </trkpt>
      <trkpt lat="44.33512" lon="2.66685">
        <ele>669.6958008</ele>
        <time>2014-09-10T16:23:34Z</time>
      </trkpt>
      <trkpt lat="44.33515" lon="2.66683">
        <ele>669.6958008</ele>
        <time>2014-09-10T16:23:35Z</time>
      </trkpt>
      <trkpt lat="44.3353" lon="2.6667">
        <ele>672.5795898</ele>
        <time>2014-09-10T16:23:41Z</time>
      </trkpt>
      <trkpt lat="44.33543" lon="2.66661">
        <ele>673.0603027</ele>
        <time>2014-09-10T16:23:46Z</time>
      </trkpt>
      <trkpt lat="44.33552" lon="2.66651">
        <ele>674.5021973</ele>
        <time>2014-09-10T16:23:50Z</time>
      </trkpt>
      <trkpt lat="44.33564" lon="2.6664">
        <ele>675.4633789</ele>
        <time>2014-09-10T16:23:55Z</time>
      </trkpt>
      <trkpt lat="44.33572" lon="2.66622">
        <ele>675.4633789</ele>
        <time>2014-09-10T16:24:00Z</time>
      </trkpt>
      <trkpt lat="44.33574" lon="2.6662">
        <ele>675.4633789</ele>
        <time>2014-09-10T16:24:01Z</time>
      </trkpt>
      <trkpt lat="44.33586" lon="2.66607">
        <ele>670.1762695</ele>
        <time>2014-09-10T16:24:07Z</time>
      </trkpt>
      <trkpt lat="44.33596" lon="2.6659">
        <ele>656.2370605</ele>
        <time>2014-09-10T16:24:12Z</time>
      </trkpt>
      <trkpt lat="44.33601" lon="2.66575">
        <ele>650.4692383</ele>
        <time>2014-09-10T16:24:16Z</time>
      </trkpt>
      <trkpt lat="44.33607" lon="2.6656">
        <ele>646.6240234</ele>
        <time>2014-09-10T16:24:21Z</time>
      </trkpt>
      <trkpt lat="44.33615" lon="2.66541">
        <ele>646.6240234</ele>
        <time>2014-09-10T16:24:27Z</time>
      </trkpt>
      <trkpt lat="44.33629" lon="2.66527">
        <ele>647.1044922</ele>
        <time>2014-09-10T16:24:33Z</time>
      </trkpt>
      <trkpt lat="44.33642" lon="2.6652">
        <ele>648.065918</ele>
        <time>2014-09-10T16:24:38Z</time>
      </trkpt>
      <trkpt lat="44.33647" lon="2.66517">
        <ele>648.5463867</ele>
        <time>2014-09-10T16:24:40Z</time>
      </trkpt>
      <trkpt lat="44.33656" lon="2.66512">
        <ele>648.065918</ele>
        <time>2014-09-10T16:24:44Z</time>
      </trkpt>
      <trkpt lat="44.33669" lon="2.66506">
        <ele>647.5852051</ele>
        <time>2014-09-10T16:24:49Z</time>
      </trkpt>
      <trkpt lat="44.33683" lon="2.665">
        <ele>645.6625977</ele>
        <time>2014-09-10T16:24:54Z</time>
      </trkpt>
      <trkpt lat="44.33693" lon="2.66489">
        <ele>640.855957</ele>
        <time>2014-09-10T16:24:58Z</time>
      </trkpt>
      <trkpt lat="44.33702" lon="2.66481">
        <ele>637.0107422</ele>
        <time>2014-09-10T16:25:02Z</time>
      </trkpt>
      <trkpt lat="44.33712" lon="2.66472">
        <ele>634.126709</ele>
        <time>2014-09-10T16:25:06Z</time>
      </trkpt>
      <trkpt lat="44.33714" lon="2.66459">
        <ele>632.2041016</ele>
        <time>2014-09-10T16:25:10Z</time>
      </trkpt>
      <trkpt lat="44.33714" lon="2.66455">
        <ele>631.7233887</ele>
        <time>2014-09-10T16:25:11Z</time>
      </trkpt>
      <trkpt lat="44.33704" lon="2.66441">
        <ele>628.3588867</ele>
        <time>2014-09-10T16:25:16Z</time>
      </trkpt>
      <trkpt lat="44.33698" lon="2.66436">
        <ele>627.3977051</ele>
        <time>2014-09-10T16:25:19Z</time>
      </trkpt>
      <trkpt lat="44.33686" lon="2.66425">
        <ele>624.032959</ele>
        <time>2014-09-10T16:25:25Z</time>
      </trkpt>
      <trkpt lat="44.33676" lon="2.66416">
        <ele>619.2263184</ele>
        <time>2014-09-10T16:25:30Z</time>
      </trkpt>
      <trkpt lat="44.33666" lon="2.6641">
        <ele>616.3422852</ele>
        <time>2014-09-10T16:25:35Z</time>
      </trkpt>
      <trkpt lat="44.33662" lon="2.6641">
        <ele>614.4196777</ele>
        <time>2014-09-10T16:25:37Z</time>
      </trkpt>
      <trkpt lat="44.33657" lon="2.66399">
        <ele>612.4970703</ele>
        <time>2014-09-10T16:25:42Z</time>
      </trkpt>
      <trkpt lat="44.33656" lon="2.66386">
        <ele>609.1325684</ele>
        <time>2014-09-10T16:25:47Z</time>
      </trkpt>
      <trkpt lat="44.33655" lon="2.66383">
        <ele>608.1713867</ele>
        <time>2014-09-10T16:25:48Z</time>
      </trkpt>
      <trkpt lat="44.33654" lon="2.66377">
        <ele>604.8066406</ele>
        <time>2014-09-10T16:25:50Z</time>
      </trkpt>
      <trkpt lat="44.33646" lon="2.66364">
        <ele>602.4030762</ele>
        <time>2014-09-10T16:25:55Z</time>
      </trkpt>
      <trkpt lat="44.33639" lon="2.66331">
        <ele>606.729248</ele>
        <time>2014-09-10T16:26:01Z</time>
      </trkpt>
      <trkpt lat="44.33641" lon="2.66321">
        <ele>605.7680664</ele>
        <time>2014-09-10T16:26:03Z</time>
      </trkpt>
      <trkpt lat="44.33636" lon="2.66292">
        <ele>613.4584961</ele>
        <time>2014-09-10T16:26:09Z</time>
      </trkpt>
      <trkpt lat="44.3363" lon="2.66276">
        <ele>617.3037109</ele>
        <time>2014-09-10T16:26:13Z</time>
      </trkpt>
      <trkpt lat="44.33628" lon="2.6627">
        <ele>618.2648926</ele>
        <time>2014-09-10T16:26:15Z</time>
      </trkpt>
      <trkpt lat="44.33624" lon="2.66256">
        <ele>617.7841797</ele>
        <time>2014-09-10T16:26:20Z</time>
      </trkpt>
      <trkpt lat="44.33623" lon="2.66235">
        <ele>617.7841797</ele>
        <time>2014-09-10T16:26:27Z</time>
      </trkpt>
      <trkpt lat="44.33622" lon="2.66227">
        <ele>618.2648926</ele>
        <time>2014-09-10T16:26:30Z</time>
      </trkpt>
      <trkpt lat="44.33621" lon="2.66216">
        <ele>616.822998</ele>
        <time>2014-09-10T16:26:34Z</time>
      </trkpt>
      <trkpt lat="44.33619" lon="2.66194">
        <ele>617.7841797</ele>
        <time>2014-09-10T16:26:41Z</time>
      </trkpt>
      <trkpt lat="44.33616" lon="2.66177">
        <ele>623.5524902</ele>
        <time>2014-09-10T16:26:46Z</time>
      </trkpt>
      <trkpt lat="44.33615" lon="2.66169">
        <ele>625.9555664</ele>
        <time>2014-09-10T16:26:48Z</time>
      </trkpt>
      <trkpt lat="44.33616" lon="2.66155">
        <ele>628.3588867</ele>
        <time>2014-09-10T16:26:53Z</time>
      </trkpt>
      <trkpt lat="44.33615" lon="2.66139">
        <ele>628.3588867</ele>
        <time>2014-09-10T16:26:59Z</time>
      </trkpt>
      <trkpt lat="44.33614" lon="2.66133">
        <ele>628.3588867</ele>
        <time>2014-09-10T16:27:01Z</time>
      </trkpt>
      <trkpt lat="44.33612" lon="2.66125">
        <ele>629.3200684</ele>
        <time>2014-09-10T16:27:05Z</time>
      </trkpt>
      <trkpt lat="44.3361" lon="2.66107">
        <ele>626.9169922</ele>
        <time>2014-09-10T16:27:12Z</time>
      </trkpt>
      <trkpt lat="44.33609" lon="2.66104">
        <ele>626.4362793</ele>
        <time>2014-09-10T16:27:13Z</time>
      </trkpt>
      <trkpt lat="44.33607" lon="2.66084">
        <ele>633.6459961</ele>
        <time>2014-09-10T16:27:20Z</time>
      </trkpt>
      <trkpt lat="44.33606" lon="2.66071">
        <ele>633.1652832</ele>
        <time>2014-09-10T16:27:26Z</time>
      </trkpt>
      <trkpt lat="44.33605" lon="2.66055">
        <ele>633.6459961</ele>
        <time>2014-09-10T16:27:31Z</time>
      </trkpt>
      <trkpt lat="44.33604" lon="2.66053">
        <ele>633.6459961</ele>
        <time>2014-09-10T16:27:32Z</time>
      </trkpt>
      <trkpt lat="44.33603" lon="2.6603">
        <ele>633.1652832</ele>
        <time>2014-09-10T16:27:39Z</time>
      </trkpt>
      <trkpt lat="44.336" lon="2.66015">
        <ele>633.1652832</ele>
        <time>2014-09-10T16:27:44Z</time>
      </trkpt>
      <trkpt lat="44.33597" lon="2.65999">
        <ele>634.126709</ele>
        <time>2014-09-10T16:27:49Z</time>
      </trkpt>
      <trkpt lat="44.33596" lon="2.65996">
        <ele>634.6074219</ele>
        <time>2014-09-10T16:27:50Z</time>
      </trkpt>
      <trkpt lat="44.33589" lon="2.65978">
        <ele>632.6848145</ele>
        <time>2014-09-10T16:27:56Z</time>
      </trkpt>
      <trkpt lat="44.33585" lon="2.6597">
        <ele>631.7233887</ele>
        <time>2014-09-10T16:27:59Z</time>
      </trkpt>
      <trkpt lat="44.33578" lon="2.65957">
        <ele>631.7233887</ele>
        <time>2014-09-10T16:28:04Z</time>
      </trkpt>
      <trkpt lat="44.33569" lon="2.6594">
        <ele>633.1652832</ele>
        <time>2014-09-10T16:28:10Z</time>
      </trkpt>
      <trkpt lat="44.33559" lon="2.65923">
        <ele>635.5686035</ele>
        <time>2014-09-10T16:28:16Z</time>
      </trkpt>
      <trkpt lat="44.33553" lon="2.65912">
        <ele>637.0107422</ele>
        <time>2014-09-10T16:28:20Z</time>
      </trkpt>
      <trkpt lat="44.33546" lon="2.65898">
        <ele>638.4528809</ele>
        <time>2014-09-10T16:28:25Z</time>
      </trkpt>
      <trkpt lat="44.3354" lon="2.65884">
        <ele>641.3366699</ele>
        <time>2014-09-10T16:28:31Z</time>
      </trkpt>
      <trkpt lat="44.33531" lon="2.65868">
        <ele>644.2207031</ele>
        <time>2014-09-10T16:28:38Z</time>
      </trkpt>
      <trkpt lat="44.3353" lon="2.65853">
        <ele>645.6625977</ele>
        <time>2014-09-10T16:28:43Z</time>
      </trkpt>
      <trkpt lat="44.33531" lon="2.65847">
        <ele>645.1818848</ele>
        <time>2014-09-10T16:28:45Z</time>
      </trkpt>
      <trkpt lat="44.33538" lon="2.65834">
        <ele>644.7011719</ele>
        <time>2014-09-10T16:28:52Z</time>
      </trkpt>
      <trkpt lat="44.33544" lon="2.65825">
        <ele>643.7399902</ele>
        <time>2014-09-10T16:28:57Z</time>
      </trkpt>
      <trkpt lat="44.33554" lon="2.65813">
        <ele>642.7788086</ele>
        <time>2014-09-10T16:29:04Z</time>
      </trkpt>
      <trkpt lat="44.3356" lon="2.65802">
        <ele>641.3366699</ele>
        <time>2014-09-10T16:29:09Z</time>
      </trkpt>
      <trkpt lat="44.33568" lon="2.65788">
        <ele>642.2980957</ele>
        <time>2014-09-10T16:29:17Z</time>
      </trkpt>
      <trkpt lat="44.33576" lon="2.65777">
        <ele>642.2980957</ele>
        <time>2014-09-10T16:29:22Z</time>
      </trkpt>
      <trkpt lat="44.33585" lon="2.65766">
        <ele>643.7399902</ele>
        <time>2014-09-10T16:29:28Z</time>
      </trkpt>
      <trkpt lat="44.33594" lon="2.65753">
        <ele>647.1044922</ele>
        <time>2014-09-10T16:29:34Z</time>
      </trkpt>
      <trkpt lat="44.33601" lon="2.65744">
        <ele>648.065918</ele>
        <time>2014-09-10T16:29:38Z</time>
      </trkpt>
      <trkpt lat="44.33609" lon="2.65735">
        <ele>647.1044922</ele>
        <time>2014-09-10T16:29:43Z</time>
      </trkpt>
      <trkpt lat="44.3361" lon="2.65733">
        <ele>647.1044922</ele>
        <time>2014-09-10T16:29:44Z</time>
      </trkpt>
      <trkpt lat="44.33616" lon="2.6572">
        <ele>651.9111328</ele>
        <time>2014-09-10T16:29:49Z</time>
      </trkpt>
      <trkpt lat="44.33618" lon="2.6572">
        <ele>653.8339844</ele>
        <time>2014-09-10T16:29:50Z</time>
      </trkpt>
      <trkpt lat="44.33622" lon="2.65723">
        <ele>658.6403809</ele>
        <time>2014-09-10T16:29:56Z</time>
      </trkpt>
      <trkpt lat="44.33626" lon="2.65731">
        <ele>662.9663086</ele>
        <time>2014-09-10T16:30:01Z</time>
      </trkpt>
      <trkpt lat="44.33627" lon="2.65732">
        <ele>663.4470215</ele>
        <time>2014-09-10T16:30:02Z</time>
      </trkpt>
      <trkpt lat="44.33641" lon="2.65725">
        <ele>668.2536621</ele>
        <time>2014-09-10T16:30:12Z</time>
      </trkpt>
      <trkpt lat="44.33651" lon="2.65717">
        <ele>671.1376953</ele>
        <time>2014-09-10T16:30:19Z</time>
      </trkpt>
      <trkpt lat="44.33661" lon="2.65713">
        <ele>672.5795898</ele>
        <time>2014-09-10T16:30:26Z</time>
      </trkpt>
      <trkpt lat="44.33672" lon="2.65707">
        <ele>674.5021973</ele>
        <time>2014-09-10T16:30:33Z</time>
      </trkpt>
      <trkpt lat="44.33681" lon="2.65702">
        <ele>674.5021973</ele>
        <time>2014-09-10T16:30:37Z</time>
      </trkpt>
      <trkpt lat="44.33694" lon="2.65701">
        <ele>675.4633789</ele>
        <time>2014-09-10T16:30:43Z</time>
      </trkpt>
      <trkpt lat="44.337" lon="2.65698">
        <ele>674.9829102</ele>
        <time>2014-09-10T16:30:46Z</time>
      </trkpt>
      <trkpt lat="44.33713" lon="2.65697">
        <ele>675.4633789</ele>
        <time>2014-09-10T16:30:52Z</time>
      </trkpt>
      <trkpt lat="44.33721" lon="2.65696">
        <ele>675.4633789</ele>
        <time>2014-09-10T16:30:56Z</time>
      </trkpt>
      <trkpt lat="44.33726" lon="2.65694">
        <ele>675.9440918</ele>
        <time>2014-09-10T16:30:58Z</time>
      </trkpt>
      <trkpt lat="44.33739" lon="2.6569">
        <ele>676.4248047</ele>
        <time>2014-09-10T16:31:04Z</time>
      </trkpt>
      <trkpt lat="44.33749" lon="2.65687">
        <ele>677.3862305</ele>
        <time>2014-09-10T16:31:08Z</time>
      </trkpt>
      <trkpt lat="44.33763" lon="2.65687">
        <ele>678.3474121</ele>
        <time>2014-09-10T16:31:14Z</time>
      </trkpt>
      <trkpt lat="44.33776" lon="2.65689">
        <ele>680.7507324</ele>
        <time>2014-09-10T16:31:19Z</time>
      </trkpt>
      <trkpt lat="44.33792" lon="2.6569">
        <ele>681.7119141</ele>
        <time>2014-09-10T16:31:25Z</time>
      </trkpt>
      <trkpt lat="44.338" lon="2.65691">
        <ele>682.6733398</ele>
        <time>2014-09-10T16:31:29Z</time>
      </trkpt>
      <trkpt lat="44.33808" lon="2.65693">
        <ele>682.6733398</ele>
        <time>2014-09-10T16:31:33Z</time>
      </trkpt>
      <trkpt lat="44.33816" lon="2.65698">
        <ele>684.1154785</ele>
        <time>2014-09-10T16:31:37Z</time>
      </trkpt>
      <trkpt lat="44.33822" lon="2.65702">
        <ele>684.1154785</ele>
        <time>2014-09-10T16:31:40Z</time>
      </trkpt>
      <trkpt lat="44.33835" lon="2.65706">
        <ele>686.0380859</ele>
        <time>2014-09-10T16:31:47Z</time>
      </trkpt>
      <trkpt lat="44.33846" lon="2.65712">
        <ele>686.5187988</ele>
        <time>2014-09-10T16:31:52Z</time>
      </trkpt>
      <trkpt lat="44.33859" lon="2.65718">
        <ele>685.557373</ele>
        <time>2014-09-10T16:31:58Z</time>
      </trkpt>
      <trkpt lat="44.33867" lon="2.65722">
        <ele>685.0769043</ele>
        <time>2014-09-10T16:32:02Z</time>
      </trkpt>
      <trkpt lat="44.3388" lon="2.65734">
        <ele>683.6345215</ele>
        <time>2014-09-10T16:32:08Z</time>
      </trkpt>
      <trkpt lat="44.33892" lon="2.65748">
        <ele>684.5961914</ele>
        <time>2014-09-10T16:32:14Z</time>
      </trkpt>
      <trkpt lat="44.33898" lon="2.65755">
        <ele>684.5961914</ele>
        <time>2014-09-10T16:32:17Z</time>
      </trkpt>
      <trkpt lat="44.33905" lon="2.65751">
        <ele>685.0769043</ele>
        <time>2014-09-10T16:32:21Z</time>
      </trkpt>
      <trkpt lat="44.3391" lon="2.65742">
        <ele>685.0769043</ele>
        <time>2014-09-10T16:32:25Z</time>
      </trkpt>
      <trkpt lat="44.33914" lon="2.65727">
        <ele>684.5961914</ele>
        <time>2014-09-10T16:32:30Z</time>
      </trkpt>
      <trkpt lat="44.33917" lon="2.65714">
        <ele>686.0380859</ele>
        <time>2014-09-10T16:32:34Z</time>
      </trkpt>
      <trkpt lat="44.33921" lon="2.65692">
        <ele>685.557373</ele>
        <time>2014-09-10T16:32:41Z</time>
      </trkpt>
      <trkpt lat="44.33925" lon="2.65678">
        <ele>685.0769043</ele>
        <time>2014-09-10T16:32:46Z</time>
      </trkpt>
      <trkpt lat="44.33928" lon="2.65662">
        <ele>683.6345215</ele>
        <time>2014-09-10T16:32:51Z</time>
      </trkpt>
      <trkpt lat="44.33932" lon="2.65642">
        <ele>681.2314453</ele>
        <time>2014-09-10T16:32:57Z</time>
      </trkpt>
      <trkpt lat="44.33935" lon="2.65634">
        <ele>680.7507324</ele>
        <time>2014-09-10T16:33:00Z</time>
      </trkpt>
      <trkpt lat="44.33942" lon="2.65619">
        <ele>682.6733398</ele>
        <time>2014-09-10T16:33:05Z</time>
      </trkpt>
      <trkpt lat="44.33947" lon="2.65607">
        <ele>683.6345215</ele>
        <time>2014-09-10T16:33:09Z</time>
      </trkpt>
      <trkpt lat="44.33954" lon="2.65591">
        <ele>683.1538086</ele>
        <time>2014-09-10T16:33:14Z</time>
      </trkpt>
      <trkpt lat="44.33961" lon="2.65577">
        <ele>682.6733398</ele>
        <time>2014-09-10T16:33:19Z</time>
      </trkpt>
      <trkpt lat="44.33965" lon="2.65564">
        <ele>681.7119141</ele>
        <time>2014-09-10T16:33:23Z</time>
      </trkpt>
      <trkpt lat="44.33971" lon="2.65544">
        <ele>680.7507324</ele>
        <time>2014-09-10T16:33:29Z</time>
      </trkpt>
      <trkpt lat="44.33973" lon="2.65537">
        <ele>680.2700195</ele>
        <time>2014-09-10T16:33:31Z</time>
      </trkpt>
      <trkpt lat="44.33979" lon="2.6552">
        <ele>681.2314453</ele>
        <time>2014-09-10T16:33:36Z</time>
      </trkpt>
      <trkpt lat="44.33983" lon="2.65504">
        <ele>681.2314453</ele>
        <time>2014-09-10T16:33:40Z</time>
      </trkpt>
      <trkpt lat="44.33989" lon="2.65483">
        <ele>681.7119141</ele>
        <time>2014-09-10T16:33:46Z</time>
      </trkpt>
      <trkpt lat="44.33996" lon="2.65462">
        <ele>680.2700195</ele>
        <time>2014-09-10T16:33:52Z</time>
      </trkpt>
      <trkpt lat="44.34003" lon="2.65445">
        <ele>679.7893066</ele>
        <time>2014-09-10T16:33:57Z</time>
      </trkpt>
      <trkpt lat="44.34006" lon="2.65439">
        <ele>679.3085938</ele>
        <time>2014-09-10T16:33:59Z</time>
      </trkpt>
      <trkpt lat="44.34016" lon="2.65417">
        <ele>677.3862305</ele>
        <time>2014-09-10T16:34:06Z</time>
      </trkpt>
      <trkpt lat="44.34025" lon="2.65397">
        <ele>676.9055176</ele>
        <time>2014-09-10T16:34:12Z</time>
      </trkpt>
      <trkpt lat="44.34034" lon="2.65376">
        <ele>676.4248047</ele>
        <time>2014-09-10T16:34:18Z</time>
      </trkpt>
      <trkpt lat="44.34042" lon="2.65357">
        <ele>675.9440918</ele>
        <time>2014-09-10T16:34:23Z</time>
      </trkpt>
      <trkpt lat="44.3405" lon="2.65341">
        <ele>675.9440918</ele>
        <time>2014-09-10T16:34:28Z</time>
      </trkpt>
      <trkpt lat="44.3406" lon="2.65325">
        <ele>675.4633789</ele>
        <time>2014-09-10T16:34:33Z</time>
      </trkpt>
      <trkpt lat="44.3407" lon="2.65309">
        <ele>674.9829102</ele>
        <time>2014-09-10T16:34:38Z</time>
      </trkpt>
      <trkpt lat="44.3408" lon="2.65293">
        <ele>674.0214844</ele>
        <time>2014-09-10T16:34:43Z</time>
      </trkpt>
      <trkpt lat="44.34089" lon="2.65282">
        <ele>673.0603027</ele>
        <time>2014-09-10T16:34:47Z</time>
      </trkpt>
      <trkpt lat="44.34098" lon="2.6527">
        <ele>673.0603027</ele>
        <time>2014-09-10T16:34:51Z</time>
      </trkpt>
      <trkpt lat="44.34111" lon="2.6525">
        <ele>671.6181641</ele>
        <time>2014-09-10T16:34:58Z</time>
      </trkpt>
      <trkpt lat="44.34122" lon="2.65237">
        <ele>671.1376953</ele>
        <time>2014-09-10T16:35:03Z</time>
      </trkpt>
      <trkpt lat="44.34133" lon="2.65224">
        <ele>670.6569824</ele>
        <time>2014-09-10T16:35:08Z</time>
      </trkpt>
      <trkpt lat="44.34146" lon="2.65207">
        <ele>670.6569824</ele>
        <time>2014-09-10T16:35:14Z</time>
      </trkpt>
      <trkpt lat="44.34156" lon="2.65192">
        <ele>670.1762695</ele>
        <time>2014-09-10T16:35:19Z</time>
      </trkpt>
      <trkpt lat="44.34164" lon="2.65181">
        <ele>670.1762695</ele>
        <time>2014-09-10T16:35:23Z</time>
      </trkpt>
      <trkpt lat="44.34174" lon="2.65164">
        <ele>672.098877</ele>
        <time>2014-09-10T16:35:28Z</time>
      </trkpt>
      <trkpt lat="44.34177" lon="2.65153">
        <ele>673.0603027</ele>
        <time>2014-09-10T16:35:31Z</time>
      </trkpt>
      <trkpt lat="44.34175" lon="2.65128">
        <ele>674.5021973</ele>
        <time>2014-09-10T16:35:37Z</time>
      </trkpt>
      <trkpt lat="44.34174" lon="2.65124">
        <ele>674.5021973</ele>
        <time>2014-09-10T16:35:38Z</time>
      </trkpt>
      <trkpt lat="44.34172" lon="2.65114">
        <ele>674.0214844</ele>
        <time>2014-09-10T16:35:41Z</time>
      </trkpt>
      <trkpt lat="44.34168" lon="2.65088">
        <ele>673.0603027</ele>
        <time>2014-09-10T16:35:47Z</time>
      </trkpt>
      <trkpt lat="44.34164" lon="2.65069">
        <ele>672.098877</ele>
        <time>2014-09-10T16:35:52Z</time>
      </trkpt>
      <trkpt lat="44.34161" lon="2.65053">
        <ele>671.6181641</ele>
        <time>2014-09-10T16:35:56Z</time>
      </trkpt>
      <trkpt lat="44.34158" lon="2.65034">
        <ele>670.6569824</ele>
        <time>2014-09-10T16:36:01Z</time>
      </trkpt>
      <trkpt lat="44.34156" lon="2.65012">
        <ele>669.6958008</ele>
        <time>2014-09-10T16:36:07Z</time>
      </trkpt>
      <trkpt lat="44.34151" lon="2.64993">
        <ele>668.734375</ele>
        <time>2014-09-10T16:36:12Z</time>
      </trkpt>
      <trkpt lat="44.34147" lon="2.64964">
        <ele>665.3696289</ele>
        <time>2014-09-10T16:36:19Z</time>
      </trkpt>
      <trkpt lat="44.34145" lon="2.64947">
        <ele>663.9274902</ele>
        <time>2014-09-10T16:36:23Z</time>
      </trkpt>
      <trkpt lat="44.34143" lon="2.64926">
        <ele>662.005127</ele>
        <time>2014-09-10T16:36:28Z</time>
      </trkpt>
      <trkpt lat="44.34142" lon="2.64904">
        <ele>661.0437012</ele>
        <time>2014-09-10T16:36:33Z</time>
      </trkpt>
      <trkpt lat="44.3414" lon="2.64883">
        <ele>661.5244141</ele>
        <time>2014-09-10T16:36:37Z</time>
      </trkpt>
      <trkpt lat="44.34139" lon="2.64859">
        <ele>660.0822754</ele>
        <time>2014-09-10T16:36:42Z</time>
      </trkpt>
      <trkpt lat="44.34138" lon="2.64854">
        <ele>660.0822754</ele>
        <time>2014-09-10T16:36:43Z</time>
      </trkpt>
      <trkpt lat="44.34136" lon="2.64835">
        <ele>658.1599121</ele>
        <time>2014-09-10T16:36:48Z</time>
      </trkpt>
      <trkpt lat="44.34135" lon="2.64824">
        <ele>656.7177734</ele>
        <time>2014-09-10T16:36:54Z</time>
      </trkpt>
      <trkpt lat="44.34135" lon="2.64812">
        <ele>655.7565918</ele>
        <time>2014-09-10T16:36:59Z</time>
      </trkpt>
      <trkpt lat="44.34133" lon="2.64795">
        <ele>655.7565918</ele>
        <time>2014-09-10T16:37:03Z</time>
      </trkpt>
      <trkpt lat="44.34134" lon="2.6479">
        <ele>655.7565918</ele>
        <time>2014-09-10T16:37:04Z</time>
      </trkpt>
      <trkpt lat="44.34133" lon="2.64774">
        <ele>654.3146973</ele>
        <time>2014-09-10T16:37:10Z</time>
      </trkpt>
      <trkpt lat="44.34134" lon="2.64765">
        <ele>654.3146973</ele>
        <time>2014-09-10T16:37:14Z</time>
      </trkpt>
      <trkpt lat="44.3413" lon="2.64749">
        <ele>654.3146973</ele>
        <time>2014-09-10T16:37:18Z</time>
      </trkpt>
      <trkpt lat="44.34123" lon="2.64725">
        <ele>653.3532715</ele>
        <time>2014-09-10T16:37:24Z</time>
      </trkpt>
      <trkpt lat="44.34118" lon="2.64713">
        <ele>653.3532715</ele>
        <time>2014-09-10T16:37:28Z</time>
      </trkpt>
      <trkpt lat="44.34112" lon="2.64696">
        <ele>653.3532715</ele>
        <time>2014-09-10T16:37:33Z</time>
      </trkpt>
      <trkpt lat="44.34106" lon="2.64682">
        <ele>653.8339844</ele>
        <time>2014-09-10T16:37:37Z</time>
      </trkpt>
      <trkpt lat="44.34102" lon="2.64668">
        <ele>653.8339844</ele>
        <time>2014-09-10T16:37:41Z</time>
      </trkpt>
      <trkpt lat="44.34098" lon="2.64651">
        <ele>653.8339844</ele>
        <time>2014-09-10T16:37:46Z</time>
      </trkpt>
      <trkpt lat="44.34094" lon="2.64632">
        <ele>655.2758789</ele>
        <time>2014-09-10T16:37:52Z</time>
      </trkpt>
      <trkpt lat="44.34089" lon="2.64613">
        <ele>655.2758789</ele>
        <time>2014-09-10T16:37:58Z</time>
      </trkpt>
      <trkpt lat="44.34086" lon="2.64599">
        <ele>655.2758789</ele>
        <time>2014-09-10T16:38:02Z</time>
      </trkpt>
      <trkpt lat="44.34085" lon="2.64596">
        <ele>655.2758789</ele>
        <time>2014-09-10T16:38:03Z</time>
      </trkpt>
      <trkpt lat="44.34083" lon="2.64578">
        <ele>655.2758789</ele>
        <time>2014-09-10T16:38:08Z</time>
      </trkpt>
      <trkpt lat="44.34078" lon="2.64559">
        <ele>655.7565918</ele>
        <time>2014-09-10T16:38:13Z</time>
      </trkpt>
      <trkpt lat="44.34075" lon="2.64542">
        <ele>657.1984863</ele>
        <time>2014-09-10T16:38:18Z</time>
      </trkpt>
      <trkpt lat="44.34072" lon="2.64531">
        <ele>658.1599121</ele>
        <time>2014-09-10T16:38:21Z</time>
      </trkpt>
      <trkpt lat="44.34069" lon="2.64517">
        <ele>658.6403809</ele>
        <time>2014-09-10T16:38:25Z</time>
      </trkpt>
      <trkpt lat="44.34065" lon="2.64501">
        <ele>658.6403809</ele>
        <time>2014-09-10T16:38:29Z</time>
      </trkpt>
      <trkpt lat="44.34062" lon="2.64482">
        <ele>658.6403809</ele>
        <time>2014-09-10T16:38:34Z</time>
      </trkpt>
      <trkpt lat="44.34064" lon="2.64461">
        <ele>657.1984863</ele>
        <time>2014-09-10T16:38:40Z</time>
      </trkpt>
      <trkpt lat="44.34066" lon="2.6445">
        <ele>656.7177734</ele>
        <time>2014-09-10T16:38:43Z</time>
      </trkpt>
      <trkpt lat="44.34069" lon="2.64426">
        <ele>656.2370605</ele>
        <time>2014-09-10T16:38:49Z</time>
      </trkpt>
      <trkpt lat="44.34068" lon="2.64408">
        <ele>655.7565918</ele>
        <time>2014-09-10T16:38:53Z</time>
      </trkpt>
      <trkpt lat="44.34062" lon="2.64384">
        <ele>656.7177734</ele>
        <time>2014-09-10T16:38:59Z</time>
      </trkpt>
      <trkpt lat="44.34058" lon="2.64367">
        <ele>657.1984863</ele>
        <time>2014-09-10T16:39:03Z</time>
      </trkpt>
      <trkpt lat="44.34057" lon="2.64348">
        <ele>657.6791992</ele>
        <time>2014-09-10T16:39:08Z</time>
      </trkpt>
      <trkpt lat="44.34058" lon="2.64331">
        <ele>657.6791992</ele>
        <time>2014-09-10T16:39:13Z</time>
      </trkpt>
      <trkpt lat="44.34057" lon="2.64321">
        <ele>657.1984863</ele>
        <time>2014-09-10T16:39:16Z</time>
      </trkpt>
      <trkpt lat="44.34055" lon="2.64307">
        <ele>657.6791992</ele>
        <time>2014-09-10T16:39:20Z</time>
      </trkpt>
      <trkpt lat="44.34053" lon="2.64297">
        <ele>657.6791992</ele>
        <time>2014-09-10T16:39:23Z</time>
      </trkpt>
      <trkpt lat="44.3405" lon="2.64276">
        <ele>657.6791992</ele>
        <time>2014-09-10T16:39:29Z</time>
      </trkpt>
      <trkpt lat="44.34047" lon="2.64255">
        <ele>659.1210938</ele>
        <time>2014-09-10T16:39:35Z</time>
      </trkpt>
      <trkpt lat="44.34044" lon="2.64238">
        <ele>659.6018066</ele>
        <time>2014-09-10T16:39:40Z</time>
      </trkpt>
      <trkpt lat="44.34039" lon="2.64223">
        <ele>660.5629883</ele>
        <time>2014-09-10T16:39:45Z</time>
      </trkpt>
      <trkpt lat="44.34032" lon="2.64208">
        <ele>661.5244141</ele>
        <time>2014-09-10T16:39:50Z</time>
      </trkpt>
      <trkpt lat="44.34025" lon="2.64194">
        <ele>662.005127</ele>
        <time>2014-09-10T16:39:55Z</time>
      </trkpt>
      <trkpt lat="44.34018" lon="2.64179">
        <ele>663.4470215</ele>
        <time>2014-09-10T16:40:00Z</time>
      </trkpt>
      <trkpt lat="44.34012" lon="2.64164">
        <ele>663.4470215</ele>
        <time>2014-09-10T16:40:05Z</time>
      </trkpt>
      <trkpt lat="44.34004" lon="2.64145">
        <ele>663.4470215</ele>
        <time>2014-09-10T16:40:11Z</time>
      </trkpt>
      <trkpt lat="44.34" lon="2.64133">
        <ele>664.888916</ele>
        <time>2014-09-10T16:40:15Z</time>
      </trkpt>
      <trkpt lat="44.33992" lon="2.64115">
        <ele>665.3696289</ele>
        <time>2014-09-10T16:40:21Z</time>
      </trkpt>
      <trkpt lat="44.33987" lon="2.64099">
        <ele>666.3308105</ele>
        <time>2014-09-10T16:40:26Z</time>
      </trkpt>
      <trkpt lat="44.33982" lon="2.64083">
        <ele>666.3308105</ele>
        <time>2014-09-10T16:40:31Z</time>
      </trkpt>
      <trkpt lat="44.33977" lon="2.64066">
        <ele>666.8115234</ele>
        <time>2014-09-10T16:40:36Z</time>
      </trkpt>
      <trkpt lat="44.33969" lon="2.64045">
        <ele>667.7727051</ele>
        <time>2014-09-10T16:40:43Z</time>
      </trkpt>
      <trkpt lat="44.3396" lon="2.64026">
        <ele>668.2536621</ele>
        <time>2014-09-10T16:40:49Z</time>
      </trkpt>
      <trkpt lat="44.33954" lon="2.6401">
        <ele>668.734375</ele>
        <time>2014-09-10T16:40:54Z</time>
      </trkpt>
      <trkpt lat="44.33946" lon="2.63988">
        <ele>667.7727051</ele>
        <time>2014-09-10T16:41:01Z</time>
      </trkpt>
      <trkpt lat="44.3394" lon="2.63971">
        <ele>667.2922363</ele>
        <time>2014-09-10T16:41:06Z</time>
      </trkpt>
      <trkpt lat="44.33932" lon="2.63951">
        <ele>668.2536621</ele>
        <time>2014-09-10T16:41:12Z</time>
      </trkpt>
      <trkpt lat="44.33928" lon="2.63937">
        <ele>668.734375</ele>
        <time>2014-09-10T16:41:16Z</time>
      </trkpt>
      <trkpt lat="44.33921" lon="2.63919">
        <ele>669.6958008</ele>
        <time>2014-09-10T16:41:21Z</time>
      </trkpt>
      <trkpt lat="44.33912" lon="2.6391">
        <ele>670.6569824</ele>
        <time>2014-09-10T16:41:25Z</time>
      </trkpt>
      <trkpt lat="44.33902" lon="2.63913">
        <ele>671.6181641</ele>
        <time>2014-09-10T16:41:29Z</time>
      </trkpt>
      <trkpt lat="44.33892" lon="2.63918">
        <ele>671.6181641</ele>
        <time>2014-09-10T16:41:33Z</time>
      </trkpt>
      <trkpt lat="44.33879" lon="2.63921">
        <ele>671.1376953</ele>
        <time>2014-09-10T16:41:38Z</time>
      </trkpt>
      <trkpt lat="44.33868" lon="2.6392">
        <ele>670.6569824</ele>
        <time>2014-09-10T16:41:42Z</time>
      </trkpt>
      <trkpt lat="44.33865" lon="2.63919">
        <ele>670.1762695</ele>
        <time>2014-09-10T16:41:43Z</time>
      </trkpt>
      <trkpt lat="44.33857" lon="2.63912">
        <ele>669.6958008</ele>
        <time>2014-09-10T16:41:47Z</time>
      </trkpt>
      <trkpt lat="44.33851" lon="2.63888">
        <ele>668.2536621</ele>
        <time>2014-09-10T16:41:53Z</time>
      </trkpt>
      <trkpt lat="44.33851" lon="2.63881">
        <ele>668.2536621</ele>
        <time>2014-09-10T16:41:55Z</time>
      </trkpt>
      <trkpt lat="44.33849" lon="2.63859">
        <ele>667.7727051</ele>
        <time>2014-09-10T16:42:01Z</time>
      </trkpt>
      <trkpt lat="44.3385" lon="2.63838">
        <ele>667.7727051</ele>
        <time>2014-09-10T16:42:07Z</time>
      </trkpt>
      <trkpt lat="44.33851" lon="2.63817">
        <ele>667.2922363</ele>
        <time>2014-09-10T16:42:13Z</time>
      </trkpt>
      <trkpt lat="44.33851" lon="2.63798">
        <ele>666.3308105</ele>
        <time>2014-09-10T16:42:18Z</time>
      </trkpt>
      <trkpt lat="44.33852" lon="2.63781">
        <ele>666.3308105</ele>
        <time>2014-09-10T16:42:23Z</time>
      </trkpt>
      <trkpt lat="44.33852" lon="2.63762">
        <ele>665.8503418</ele>
        <time>2014-09-10T16:42:28Z</time>
      </trkpt>
      <trkpt lat="44.33852" lon="2.63748">
        <ele>665.8503418</ele>
        <time>2014-09-10T16:42:32Z</time>
      </trkpt>
      <trkpt lat="44.33854" lon="2.63728">
        <ele>666.3308105</ele>
        <time>2014-09-10T16:42:37Z</time>
      </trkpt>
      <trkpt lat="44.33854" lon="2.63709">
        <ele>665.8503418</ele>
        <time>2014-09-10T16:42:42Z</time>
      </trkpt>
      <trkpt lat="44.33853" lon="2.63689">
        <ele>666.3308105</ele>
        <time>2014-09-10T16:42:47Z</time>
      </trkpt>
      <trkpt lat="44.3385" lon="2.63667">
        <ele>665.8503418</ele>
        <time>2014-09-10T16:42:53Z</time>
      </trkpt>
      <trkpt lat="44.33847" lon="2.63649">
        <ele>666.8115234</ele>
        <time>2014-09-10T16:42:58Z</time>
      </trkpt>
      <trkpt lat="44.33843" lon="2.63633">
        <ele>666.8115234</ele>
        <time>2014-09-10T16:43:03Z</time>
      </trkpt>
      <trkpt lat="44.33839" lon="2.63614">
        <ele>666.8115234</ele>
        <time>2014-09-10T16:43:08Z</time>
      </trkpt>
      <trkpt lat="44.33835" lon="2.63595">
        <ele>667.7727051</ele>
        <time>2014-09-10T16:43:13Z</time>
      </trkpt>
      <trkpt lat="44.33832" lon="2.63574">
        <ele>668.734375</ele>
        <time>2014-09-10T16:43:18Z</time>
      </trkpt>
      <trkpt lat="44.33829" lon="2.63556">
        <ele>669.6958008</ele>
        <time>2014-09-10T16:43:23Z</time>
      </trkpt>
      <trkpt lat="44.33826" lon="2.63535">
        <ele>669.2150879</ele>
        <time>2014-09-10T16:43:28Z</time>
      </trkpt>
      <trkpt lat="44.33823" lon="2.6351">
        <ele>669.2150879</ele>
        <time>2014-09-10T16:43:34Z</time>
      </trkpt>
      <trkpt lat="44.33822" lon="2.6349">
        <ele>669.2150879</ele>
        <time>2014-09-10T16:43:39Z</time>
      </trkpt>
      <trkpt lat="44.33821" lon="2.63481">
        <ele>669.6958008</ele>
        <time>2014-09-10T16:43:41Z</time>
      </trkpt>
      <trkpt lat="44.33819" lon="2.63461">
        <ele>669.2150879</ele>
        <time>2014-09-10T16:43:46Z</time>
      </trkpt>
      <trkpt lat="44.33818" lon="2.63438">
        <ele>667.7727051</ele>
        <time>2014-09-10T16:43:52Z</time>
      </trkpt>
      <trkpt lat="44.33819" lon="2.63418">
        <ele>665.8503418</ele>
        <time>2014-09-10T16:43:57Z</time>
      </trkpt>
      <trkpt lat="44.33819" lon="2.63395">
        <ele>663.4470215</ele>
        <time>2014-09-10T16:44:03Z</time>
      </trkpt>
      <trkpt lat="44.33819" lon="2.63392">
        <ele>662.4855957</ele>
        <time>2014-09-10T16:44:04Z</time>
      </trkpt>
      <trkpt lat="44.33822" lon="2.63373">
        <ele>660.0822754</ele>
        <time>2014-09-10T16:44:09Z</time>
      </trkpt>
      <trkpt lat="44.33823" lon="2.63351">
        <ele>656.7177734</ele>
        <time>2014-09-10T16:44:15Z</time>
      </trkpt>
      <trkpt lat="44.33822" lon="2.63326">
        <ele>654.795166</ele>
        <time>2014-09-10T16:44:21Z</time>
      </trkpt>
      <trkpt lat="44.33819" lon="2.63314">
        <ele>654.795166</ele>
        <time>2014-09-10T16:44:24Z</time>
      </trkpt>
      <trkpt lat="44.33804" lon="2.63304">
        <ele>659.6018066</ele>
        <time>2014-09-10T16:44:30Z</time>
      </trkpt>
      <trkpt lat="44.33802" lon="2.63301">
        <ele>660.0822754</ele>
        <time>2014-09-10T16:44:31Z</time>
      </trkpt>
      <trkpt lat="44.33792" lon="2.63279">
        <ele>661.0437012</ele>
        <time>2014-09-10T16:44:37Z</time>
      </trkpt>
      <trkpt lat="44.33781" lon="2.6326">
        <ele>662.4855957</ele>
        <time>2014-09-10T16:44:43Z</time>
      </trkpt>
      <trkpt lat="44.3377" lon="2.63243">
        <ele>662.005127</ele>
        <time>2014-09-10T16:44:49Z</time>
      </trkpt>
      <trkpt lat="44.33762" lon="2.63228">
        <ele>661.0437012</ele>
        <time>2014-09-10T16:44:54Z</time>
      </trkpt>
      <trkpt lat="44.33753" lon="2.63212">
        <ele>660.0822754</ele>
        <time>2014-09-10T16:44:59Z</time>
      </trkpt>
      <trkpt lat="44.33747" lon="2.63194">
        <ele>658.6403809</ele>
        <time>2014-09-10T16:45:04Z</time>
      </trkpt>
      <trkpt lat="44.33745" lon="2.63175">
        <ele>656.7177734</ele>
        <time>2014-09-10T16:45:09Z</time>
      </trkpt>
      <trkpt lat="44.33747" lon="2.63157">
        <ele>655.2758789</ele>
        <time>2014-09-10T16:45:14Z</time>
      </trkpt>
      <trkpt lat="44.33749" lon="2.63143">
        <ele>653.8339844</ele>
        <time>2014-09-10T16:45:18Z</time>
      </trkpt>
      <trkpt lat="44.33751" lon="2.63125">
        <ele>650.4692383</ele>
        <time>2014-09-10T16:45:23Z</time>
      </trkpt>
      <trkpt lat="44.33752" lon="2.63118">
        <ele>649.0270996</ele>
        <time>2014-09-10T16:45:25Z</time>
      </trkpt>
      <trkpt lat="44.33742" lon="2.63101">
        <ele>647.1044922</ele>
        <time>2014-09-10T16:45:31Z</time>
      </trkpt>
      <trkpt lat="44.33728" lon="2.63095">
        <ele>647.1044922</ele>
        <time>2014-09-10T16:45:36Z</time>
      </trkpt>
      <trkpt lat="44.3371" lon="2.63089">
        <ele>646.6240234</ele>
        <time>2014-09-10T16:45:42Z</time>
      </trkpt>
      <trkpt lat="44.33695" lon="2.63086">
        <ele>646.6240234</ele>
        <time>2014-09-10T16:45:47Z</time>
      </trkpt>
      <trkpt lat="44.3368" lon="2.63082">
        <ele>644.7011719</ele>
        <time>2014-09-10T16:45:52Z</time>
      </trkpt>
      <trkpt lat="44.33664" lon="2.63076">
        <ele>641.3366699</ele>
        <time>2014-09-10T16:45:58Z</time>
      </trkpt>
      <trkpt lat="44.33661" lon="2.63076">
        <ele>641.8173828</ele>
        <time>2014-09-10T16:45:59Z</time>
      </trkpt>
      <trkpt lat="44.33641" lon="2.63076">
        <ele>639.8947754</ele>
        <time>2014-09-10T16:46:06Z</time>
      </trkpt>
      <trkpt lat="44.33635" lon="2.63074">
        <ele>639.8947754</ele>
        <time>2014-09-10T16:46:08Z</time>
      </trkpt>
      <trkpt lat="44.3362" lon="2.63071">
        <ele>638.9335938</ele>
        <time>2014-09-10T16:46:13Z</time>
      </trkpt>
      <trkpt lat="44.33606" lon="2.63065">
        <ele>636.5302734</ele>
        <time>2014-09-10T16:46:18Z</time>
      </trkpt>
      <trkpt lat="44.33595" lon="2.63056">
        <ele>633.6459961</ele>
        <time>2014-09-10T16:46:23Z</time>
      </trkpt>
      <trkpt lat="44.33586" lon="2.63044">
        <ele>632.6848145</ele>
        <time>2014-09-10T16:46:27Z</time>
      </trkpt>
      <trkpt lat="44.33581" lon="2.6303">
        <ele>632.6848145</ele>
        <time>2014-09-10T16:46:31Z</time>
      </trkpt>
      <trkpt lat="44.33579" lon="2.63016">
        <ele>633.1652832</ele>
        <time>2014-09-10T16:46:35Z</time>
      </trkpt>
      <trkpt lat="44.33577" lon="2.62994">
        <ele>634.126709</ele>
        <time>2014-09-10T16:46:41Z</time>
      </trkpt>
      <trkpt lat="44.33576" lon="2.62972">
        <ele>636.0495605</ele>
        <time>2014-09-10T16:46:47Z</time>
      </trkpt>
      <trkpt lat="44.33573" lon="2.62957">
        <ele>637.4914551</ele>
        <time>2014-09-10T16:46:51Z</time>
      </trkpt>
      <trkpt lat="44.33569" lon="2.62937">
        <ele>638.9335938</ele>
        <time>2014-09-10T16:46:57Z</time>
      </trkpt>
      <trkpt lat="44.33568" lon="2.6293">
        <ele>639.8947754</ele>
        <time>2014-09-10T16:47:01Z</time>
      </trkpt>
    </trkseg>
  </trk>
</gpx>